Index of /mirror/wikimedia.org/dumps/dewiki/20240201

[ICO]NameLast modifiedSize

[PARENTDIR]Parent Directory  -
[ARC]dewiki-20240201-abstract.xml.gz2024-02-03 05:02 369M
[ARC]dewiki-20240201-abstract1.xml.gz2024-02-03 03:59 89M
[ARC]dewiki-20240201-abstract2.xml.gz2024-02-03 03:26 48M
[ARC]dewiki-20240201-abstract3.xml.gz2024-02-03 03:58 49M
[ARC]dewiki-20240201-abstract4.xml.gz2024-02-03 04:37 57M
[ARC]dewiki-20240201-abstract5.xml.gz2024-02-03 04:24 61M
[ARC]dewiki-20240201-abstract6.xml.gz2024-02-03 05:02 65M
[ARC]dewiki-20240201-all-titles-in-ns0.gz2024-02-03 01:10 26M
[ARC]dewiki-20240201-all-titles.gz2024-02-03 01:10 46M
[ARC]dewiki-20240201-babel.sql.gz2024-02-01 16:26 15K
[ARC]dewiki-20240201-category.sql.gz2024-02-01 16:04 6.3M
[ARC]dewiki-20240201-categorylinks.sql.gz2024-02-01 15:54 383M
[ARC]dewiki-20240201-change_tag.sql.gz2024-02-01 16:09 319M
[ARC]dewiki-20240201-change_tag_def.sql.gz2024-02-01 16:09 1.8K
[ARC]dewiki-20240201-externallinks.sql.gz2024-02-01 16:01 875M
[ARC]dewiki-20240201-flaggedpage_config.sql.gz2024-02-01 16:16 819
[ARC]dewiki-20240201-flaggedpage_pending.sql.gz2024-02-01 16:16 106K
[ARC]dewiki-20240201-flaggedpages.sql.gz2024-02-01 16:10 39M
[ARC]dewiki-20240201-flaggedrevs.sql.gz2024-02-01 16:14 1.6G
[ARC]dewiki-20240201-flaggedrevs_promote.sql.gz2024-02-01 16:16 30M
[ARC]dewiki-20240201-flaggedrevs_statistics.sql.gz2024-02-01 16:17 2.1M
[ARC]dewiki-20240201-flaggedrevs_tracking.sql.gz2024-02-01 16:17 171K
[ARC]dewiki-20240201-flaggedtemplates.sql.gz2024-02-01 16:24 2.1G
[ARC]dewiki-20240201-geo_tags.sql.gz2024-02-01 16:07 50M
[ARC]dewiki-20240201-image.sql.gz2024-02-01 15:46 15M
[ARC]dewiki-20240201-imagelinks.sql.gz2024-02-01 15:56 131M
[ARC]dewiki-20240201-iwlinks.sql.gz2024-02-01 16:07 39M
[ARC]dewiki-20240201-langlinks.sql.gz2024-02-01 16:02 277M
[ARC]dewiki-20240201-linktarget.sql.gz2024-02-01 15:59 160M
[   ]dewiki-20240201-md5sums.json2024-02-04 19:30 43K
[TXT]dewiki-20240201-md5sums.txt2024-02-04 19:30 41K
[ARC]dewiki-20240201-page.sql.gz2024-02-01 16:05 273M
[ARC]dewiki-20240201-page_props.sql.gz2024-02-01 16:06 91M
[ARC]dewiki-20240201-page_restrictions.sql.gz2024-02-01 16:05 2.0M
[ARC]dewiki-20240201-pagelinks.sql.gz2024-02-01 15:52 1.3G
[ARC]dewiki-20240201-pages-articles-multistream-index.txt.bz22024-02-02 03:56 55M
[ARC]dewiki-20240201-pages-articles-multistream-index1.txt-p1p297012.bz22024-02-02 03:32 1.3M
[ARC]dewiki-20240201-pages-articles-multistream-index2.txt-p297013p1262093.bz22024-02-02 03:34 3.7M
[ARC]dewiki-20240201-pages-articles-multistream-index3.txt-p1262094p2762093.bz22024-02-02 03:34 4.9M
[ARC]dewiki-20240201-pages-articles-multistream-index3.txt-p2762094p3376257.bz22024-02-02 03:30 2.1M
[ARC]dewiki-20240201-pages-articles-multistream-index4.txt-p3376258p4876257.bz22024-02-02 03:33 5.3M
[ARC]dewiki-20240201-pages-articles-multistream-index4.txt-p4876258p6115464.bz22024-02-02 03:32 4.6M
[ARC]dewiki-20240201-pages-articles-multistream-index5.txt-p6115465p7615464.bz22024-02-02 03:41 6.7M
[ARC]dewiki-20240201-pages-articles-multistream-index5.txt-p7615465p9115464.bz22024-02-02 03:43 7.1M
[ARC]dewiki-20240201-pages-articles-multistream-index5.txt-p9115465p9261244.bz22024-02-02 03:34 363K
[ARC]dewiki-20240201-pages-articles-multistream-index6.txt-p9261245p10761244.bz22024-02-02 03:43 7.5M
[ARC]dewiki-20240201-pages-articles-multistream-index6.txt-p10761245p12261244.bz22024-02-02 03:44 7.8M
[ARC]dewiki-20240201-pages-articles-multistream-index6.txt-p12261245p12978619.bz22024-02-02 03:39 3.8M
[ARC]dewiki-20240201-pages-articles-multistream.xml.bz22024-02-02 03:55 6.7G
[ARC]dewiki-20240201-pages-articles-multistream1.xml-p1p297012.bz22024-02-02 03:32 549M
[ARC]dewiki-20240201-pages-articles-multistream2.xml-p297013p1262093.bz22024-02-02 03:34 696M
[ARC]dewiki-20240201-pages-articles-multistream3.xml-p1262094p2762093.bz22024-02-02 03:34 640M
[ARC]dewiki-20240201-pages-articles-multistream3.xml-p2762094p3376257.bz22024-02-02 03:30 255M
[ARC]dewiki-20240201-pages-articles-multistream4.xml-p3376258p4876257.bz22024-02-02 03:33 624M
[ARC]dewiki-20240201-pages-articles-multistream4.xml-p4876258p6115464.bz22024-02-02 03:32 514M
[ARC]dewiki-20240201-pages-articles-multistream5.xml-p6115465p7615464.bz22024-02-02 03:41 691M
[ARC]dewiki-20240201-pages-articles-multistream5.xml-p7615465p9115464.bz22024-02-02 03:43 796M
[ARC]dewiki-20240201-pages-articles-multistream5.xml-p9115465p9261244.bz22024-02-02 03:34 37M
[ARC]dewiki-20240201-pages-articles-multistream6.xml-p9261245p10761244.bz22024-02-02 03:43 848M
[ARC]dewiki-20240201-pages-articles-multistream6.xml-p10761245p12261244.bz22024-02-02 03:44 844M
[ARC]dewiki-20240201-pages-articles-multistream6.xml-p12261245p12978619.bz22024-02-02 03:39 392M
[ARC]dewiki-20240201-pages-articles.xml.bz22024-02-01 19:15 6.5G
[ARC]dewiki-20240201-pages-articles1.xml-p1p297012.bz22024-02-01 18:15 544M
[ARC]dewiki-20240201-pages-articles2.xml-p297013p1262093.bz22024-02-01 18:18 681M
[ARC]dewiki-20240201-pages-articles3.xml-p1262094p2762093.bz22024-02-01 18:17 615M
[ARC]dewiki-20240201-pages-articles3.xml-p2762094p3376257.bz22024-02-01 18:10 244M
[ARC]dewiki-20240201-pages-articles4.xml-p3376258p4876257.bz22024-02-01 18:17 597M
[ARC]dewiki-20240201-pages-articles4.xml-p4876258p6115464.bz22024-02-01 18:15 491M
[ARC]dewiki-20240201-pages-articles5.xml-p6115465p7615464.bz22024-02-01 18:31 658M
[ARC]dewiki-20240201-pages-articles5.xml-p7615465p9115464.bz22024-02-01 18:33 762M
[ARC]dewiki-20240201-pages-articles5.xml-p9115465p9261244.bz22024-02-01 18:19 35M
[ARC]dewiki-20240201-pages-articles6.xml-p9261245p10761244.bz22024-02-01 18:35 813M
[ARC]dewiki-20240201-pages-articles6.xml-p10761245p12261244.bz22024-02-01 18:35 806M
[ARC]dewiki-20240201-pages-articles6.xml-p12261245p12978619.bz22024-02-01 18:27 374M
[ARC]dewiki-20240201-pages-logging.xml.gz2024-02-03 05:14 1.5G
[ARC]dewiki-20240201-pages-logging1.xml.gz2024-02-03 05:13 353M
[ARC]dewiki-20240201-pages-logging2.xml.gz2024-02-03 05:10 226M
[ARC]dewiki-20240201-pages-logging3.xml.gz2024-02-03 05:10 240M
[ARC]dewiki-20240201-pages-logging4.xml.gz2024-02-03 05:08 127M
[ARC]dewiki-20240201-pages-logging5.xml.gz2024-02-03 05:09 166M
[ARC]dewiki-20240201-pages-logging6.xml.gz2024-02-03 05:13 444M
[ARC]dewiki-20240201-pages-meta-current.xml.bz22024-02-02 16:20 9.5G
[ARC]dewiki-20240201-pages-meta-current1.xml-p1p297012.bz22024-02-02 15:09 649M
[ARC]dewiki-20240201-pages-meta-current2.xml-p297013p1262093.bz22024-02-02 15:14 950M
[ARC]dewiki-20240201-pages-meta-current3.xml-p1262094p2762093.bz22024-02-02 15:15 952M
[ARC]dewiki-20240201-pages-meta-current3.xml-p2762094p3376257.bz22024-02-02 15:06 390M
[ARC]dewiki-20240201-pages-meta-current4.xml-p3376258p4876257.bz22024-02-02 15:15 967M
[ARC]dewiki-20240201-pages-meta-current4.xml-p4876258p6115464.bz22024-02-02 15:13 797M
[ARC]dewiki-20240201-pages-meta-current5.xml-p6115465p7615464.bz22024-02-02 15:31 1.0G
[ARC]dewiki-20240201-pages-meta-current5.xml-p7615465p9115464.bz22024-02-02 15:35 1.1G
[ARC]dewiki-20240201-pages-meta-current5.xml-p9115465p9261244.bz22024-02-02 15:16 65M
[ARC]dewiki-20240201-pages-meta-current6.xml-p9261245p10761244.bz22024-02-02 15:36 1.1G
[ARC]dewiki-20240201-pages-meta-current6.xml-p10761245p12261244.bz22024-02-02 15:35 1.1G
[ARC]dewiki-20240201-pages-meta-current6.xml-p12261245p12978624.bz22024-02-02 15:25 519M
[CMP]dewiki-20240201-pages-meta-history1.xml-p1p1313.7z2024-02-04 10:19 181M
[ARC]dewiki-20240201-pages-meta-history1.xml-p1p1313.bz22024-02-03 06:39 2.4G
[CMP]dewiki-20240201-pages-meta-history1.xml-p1314p2909.7z2024-02-04 10:20 180M
[ARC]dewiki-20240201-pages-meta-history1.xml-p1314p2909.bz22024-02-03 06:37 2.2G
[CMP]dewiki-20240201-pages-meta-history1.xml-p2910p4622.7z2024-02-04 10:20 189M
[ARC]dewiki-20240201-pages-meta-history1.xml-p2910p4622.bz22024-02-03 06:39 2.2G
[CMP]dewiki-20240201-pages-meta-history1.xml-p4623p6017.7z2024-02-04 10:18 173M
[ARC]dewiki-20240201-pages-meta-history1.xml-p4623p6017.bz22024-02-03 06:40 2.0G
[CMP]dewiki-20240201-pages-meta-history1.xml-p6018p8424.7z2024-02-04 10:20 174M
[ARC]dewiki-20240201-pages-meta-history1.xml-p6018p8424.bz22024-02-03 06:46 1.7G
[CMP]dewiki-20240201-pages-meta-history1.xml-p8425p10469.7z2024-02-04 10:20 182M
[ARC]dewiki-20240201-pages-meta-history1.xml-p8425p10469.bz22024-02-03 06:44 2.2G
[CMP]dewiki-20240201-pages-meta-history1.xml-p10470p12985.7z2024-02-04 10:37 192M
[ARC]dewiki-20240201-pages-meta-history1.xml-p10470p12985.bz22024-02-03 07:30 2.0G
[CMP]dewiki-20240201-pages-meta-history1.xml-p12986p15865.7z2024-02-04 10:37 192M
[ARC]dewiki-20240201-pages-meta-history1.xml-p12986p15865.bz22024-02-03 07:26 1.8G
[CMP]dewiki-20240201-pages-meta-history1.xml-p15866p18627.7z2024-02-04 10:36 201M
[ARC]dewiki-20240201-pages-meta-history1.xml-p15866p18627.bz22024-02-03 07:28 2.0G
[CMP]dewiki-20240201-pages-meta-history1.xml-p18628p22849.7z2024-02-04 10:36 208M
[ARC]dewiki-20240201-pages-meta-history1.xml-p18628p22849.bz22024-02-03 07:27 1.9G
[CMP]dewiki-20240201-pages-meta-history1.xml-p22850p28995.7z2024-02-04 10:36 228M
[ARC]dewiki-20240201-pages-meta-history1.xml-p22850p28995.bz22024-02-03 07:26 1.9G
[CMP]dewiki-20240201-pages-meta-history1.xml-p28996p33481.7z2024-02-04 10:37 222M
[ARC]dewiki-20240201-pages-meta-history1.xml-p28996p33481.bz22024-02-03 07:28 2.4G
[CMP]dewiki-20240201-pages-meta-history1.xml-p33482p40781.7z2024-02-04 10:53 236M
[ARC]dewiki-20240201-pages-meta-history1.xml-p33482p40781.bz22024-02-03 08:11 1.7G
[CMP]dewiki-20240201-pages-meta-history1.xml-p40782p47908.7z2024-02-04 10:53 225M
[ARC]dewiki-20240201-pages-meta-history1.xml-p40782p47908.bz22024-02-03 08:11 1.9G
[CMP]dewiki-20240201-pages-meta-history1.xml-p47909p54358.7z2024-02-04 10:52 236M
[ARC]dewiki-20240201-pages-meta-history1.xml-p47909p54358.bz22024-02-03 08:12 2.3G
[CMP]dewiki-20240201-pages-meta-history1.xml-p54359p62165.7z2024-02-04 10:53 235M
[ARC]dewiki-20240201-pages-meta-history1.xml-p54359p62165.bz22024-02-03 08:13 1.8G
[CMP]dewiki-20240201-pages-meta-history1.xml-p62166p72952.7z2024-02-04 10:52 246M
[ARC]dewiki-20240201-pages-meta-history1.xml-p62166p72952.bz22024-02-03 08:13 2.0G
[CMP]dewiki-20240201-pages-meta-history1.xml-p72953p82659.7z2024-02-04 10:52 252M
[ARC]dewiki-20240201-pages-meta-history1.xml-p72953p82659.bz22024-02-03 08:12 1.8G
[CMP]dewiki-20240201-pages-meta-history1.xml-p82660p94925.7z2024-02-04 11:12 262M
[ARC]dewiki-20240201-pages-meta-history1.xml-p82660p94925.bz22024-02-03 08:55 1.7G
[CMP]dewiki-20240201-pages-meta-history1.xml-p94926p107634.7z2024-02-04 11:12 263M
[ARC]dewiki-20240201-pages-meta-history1.xml-p94926p107634.bz22024-02-03 08:56 1.7G
[CMP]dewiki-20240201-pages-meta-history1.xml-p107635p121787.7z2024-02-04 11:10 262M
[ARC]dewiki-20240201-pages-meta-history1.xml-p107635p121787.bz22024-02-03 08:54 1.6G
[CMP]dewiki-20240201-pages-meta-history1.xml-p121788p135576.7z2024-02-04 11:10 257M
[ARC]dewiki-20240201-pages-meta-history1.xml-p121788p135576.bz22024-02-03 08:55 1.6G
[CMP]dewiki-20240201-pages-meta-history1.xml-p135577p150651.7z2024-02-04 11:10 256M
[ARC]dewiki-20240201-pages-meta-history1.xml-p135577p150651.bz22024-02-03 08:52 1.5G
[CMP]dewiki-20240201-pages-meta-history1.xml-p150652p166640.7z2024-02-04 11:09 250M
[ARC]dewiki-20240201-pages-meta-history1.xml-p150652p166640.bz22024-02-03 08:50 1.3G
[CMP]dewiki-20240201-pages-meta-history1.xml-p166641p183304.7z2024-02-04 11:27 271M
[ARC]dewiki-20240201-pages-meta-history1.xml-p166641p183304.bz22024-02-03 09:36 1.8G
[CMP]dewiki-20240201-pages-meta-history1.xml-p183305p202354.7z2024-02-04 11:26 280M
[ARC]dewiki-20240201-pages-meta-history1.xml-p183305p202354.bz22024-02-03 09:37 1.9G
[CMP]dewiki-20240201-pages-meta-history1.xml-p202355p222260.7z2024-02-04 11:26 255M
[ARC]dewiki-20240201-pages-meta-history1.xml-p202355p222260.bz22024-02-03 09:32 1.4G
[CMP]dewiki-20240201-pages-meta-history1.xml-p222261p244791.7z2024-02-04 11:23 239M
[ARC]dewiki-20240201-pages-meta-history1.xml-p222261p244791.bz22024-02-03 09:29 1.1G
[CMP]dewiki-20240201-pages-meta-history1.xml-p244792p266407.7z2024-02-04 11:23 249M
[ARC]dewiki-20240201-pages-meta-history1.xml-p244792p266407.bz22024-02-03 09:27 1.3G
[CMP]dewiki-20240201-pages-meta-history1.xml-p266408p288842.7z2024-02-04 11:26 275M
[ARC]dewiki-20240201-pages-meta-history1.xml-p266408p288842.bz22024-02-03 09:32 1.8G
[CMP]dewiki-20240201-pages-meta-history1.xml-p288843p297012.7z2024-02-04 11:31 92M
[ARC]dewiki-20240201-pages-meta-history1.xml-p288843p297012.bz22024-02-03 09:52 477M
[CMP]dewiki-20240201-pages-meta-history2.xml-p297013p321961.7z2024-02-04 11:40 273M
[ARC]dewiki-20240201-pages-meta-history2.xml-p297013p321961.bz22024-02-03 10:07 1.6G
[CMP]dewiki-20240201-pages-meta-history2.xml-p321962p347154.7z2024-02-04 11:37 245M
[ARC]dewiki-20240201-pages-meta-history2.xml-p321962p347154.bz22024-02-03 10:07 1.2G
[CMP]dewiki-20240201-pages-meta-history2.xml-p347155p375313.7z2024-02-04 11:40 255M
[ARC]dewiki-20240201-pages-meta-history2.xml-p347155p375313.bz22024-02-03 10:07 1.3G
[CMP]dewiki-20240201-pages-meta-history2.xml-p375314p403880.7z2024-02-04 11:39 254M
[ARC]dewiki-20240201-pages-meta-history2.xml-p375314p403880.bz22024-02-03 10:09 1.3G
[CMP]dewiki-20240201-pages-meta-history2.xml-p403881p436201.7z2024-02-04 11:38 254M
[ARC]dewiki-20240201-pages-meta-history2.xml-p403881p436201.bz22024-02-03 10:06 1.2G
[CMP]dewiki-20240201-pages-meta-history2.xml-p436202p463566.7z2024-02-04 11:55 272M
[ARC]dewiki-20240201-pages-meta-history2.xml-p436202p463566.bz22024-02-03 10:47 1.7G
[CMP]dewiki-20240201-pages-meta-history2.xml-p463567p491678.7z2024-02-04 11:51 243M
[ARC]dewiki-20240201-pages-meta-history2.xml-p463567p491678.bz22024-02-03 10:40 1.2G
[CMP]dewiki-20240201-pages-meta-history2.xml-p491679p525968.7z2024-02-04 11:52 250M
[ARC]dewiki-20240201-pages-meta-history2.xml-p491679p525968.bz22024-02-03 10:42 1.2G
[CMP]dewiki-20240201-pages-meta-history2.xml-p525969p563538.7z2024-02-04 11:50 244M
[ARC]dewiki-20240201-pages-meta-history2.xml-p525969p563538.bz22024-02-03 10:37 1.1G
[CMP]dewiki-20240201-pages-meta-history2.xml-p563539p601317.7z2024-02-04 11:51 258M
[ARC]dewiki-20240201-pages-meta-history2.xml-p563539p601317.bz22024-02-03 10:39 1.2G
[CMP]dewiki-20240201-pages-meta-history2.xml-p601318p637884.7z2024-02-04 11:56 290M
[ARC]dewiki-20240201-pages-meta-history2.xml-p601318p637884.bz22024-02-03 10:50 2.1G
[CMP]dewiki-20240201-pages-meta-history2.xml-p637885p676024.7z2024-02-04 12:12 293M
[ARC]dewiki-20240201-pages-meta-history2.xml-p637885p676024.bz22024-02-03 11:37 2.2G
[CMP]dewiki-20240201-pages-meta-history2.xml-p676025p707926.7z2024-02-04 12:11 271M
[ARC]dewiki-20240201-pages-meta-history2.xml-p676025p707926.bz22024-02-03 11:33 1.8G
[CMP]dewiki-20240201-pages-meta-history2.xml-p707927p746255.7z2024-02-04 12:10 259M
[ARC]dewiki-20240201-pages-meta-history2.xml-p707927p746255.bz22024-02-03 11:27 1.4G
[CMP]dewiki-20240201-pages-meta-history2.xml-p746256p787364.7z2024-02-04 12:10 279M
[ARC]dewiki-20240201-pages-meta-history2.xml-p746256p787364.bz22024-02-03 11:26 1.6G
[CMP]dewiki-20240201-pages-meta-history2.xml-p787365p826294.7z2024-02-04 12:10 278M
[ARC]dewiki-20240201-pages-meta-history2.xml-p787365p826294.bz22024-02-03 11:25 1.6G
[CMP]dewiki-20240201-pages-meta-history2.xml-p826295p864694.7z2024-02-04 12:12 305M
[ARC]dewiki-20240201-pages-meta-history2.xml-p826295p864694.bz22024-02-03 11:32 2.2G
[CMP]dewiki-20240201-pages-meta-history2.xml-p864695p909508.7z2024-02-04 12:26 322M
[ARC]dewiki-20240201-pages-meta-history2.xml-p864695p909508.bz22024-02-03 12:23 2.4G
[CMP]dewiki-20240201-pages-meta-history2.xml-p909509p958774.7z2024-02-04 12:22 270M
[ARC]dewiki-20240201-pages-meta-history2.xml-p909509p958774.bz22024-02-03 12:12 1.4G
[CMP]dewiki-20240201-pages-meta-history2.xml-p958775p1003452.7z2024-02-04 12:23 265M
[ARC]dewiki-20240201-pages-meta-history2.xml-p958775p1003452.bz22024-02-03 12:09 1.4G
[CMP]dewiki-20240201-pages-meta-history2.xml-p1003453p1050118.7z2024-02-04 12:27 296M
[ARC]dewiki-20240201-pages-meta-history2.xml-p1003453p1050118.bz22024-02-03 12:17 2.0G
[CMP]dewiki-20240201-pages-meta-history2.xml-p1050119p1106993.7z2024-02-04 12:25 287M
[ARC]dewiki-20240201-pages-meta-history2.xml-p1050119p1106993.bz22024-02-03 12:14 1.7G
[CMP]dewiki-20240201-pages-meta-history2.xml-p1106994p1161020.7z2024-02-04 12:27 293M
[ARC]dewiki-20240201-pages-meta-history2.xml-p1106994p1161020.bz22024-02-03 12:17 1.9G
[CMP]dewiki-20240201-pages-meta-history2.xml-p1161021p1217745.7z2024-02-04 12:41 301M
[ARC]dewiki-20240201-pages-meta-history2.xml-p1161021p1217745.bz22024-02-03 13:04 2.1G
[CMP]dewiki-20240201-pages-meta-history2.xml-p1217746p1262093.7z2024-02-04 12:39 236M
[ARC]dewiki-20240201-pages-meta-history2.xml-p1217746p1262093.bz22024-02-03 12:56 1.4G
[CMP]dewiki-20240201-pages-meta-history3.xml-p1262094p1318379.7z2024-02-04 12:41 280M
[ARC]dewiki-20240201-pages-meta-history3.xml-p1262094p1318379.bz22024-02-03 12:54 1.6G
[CMP]dewiki-20240201-pages-meta-history3.xml-p1318380p1377557.7z2024-02-04 12:41 364M
[ARC]dewiki-20240201-pages-meta-history3.xml-p1318380p1377557.bz22024-02-03 13:01 1.8G
[CMP]dewiki-20240201-pages-meta-history3.xml-p1377558p1433539.7z2024-02-04 12:43 358M
[ARC]dewiki-20240201-pages-meta-history3.xml-p1377558p1433539.bz22024-02-03 13:08 2.8G
[CMP]dewiki-20240201-pages-meta-history3.xml-p1433540p1497984.7z2024-02-04 12:43 351M
[ARC]dewiki-20240201-pages-meta-history3.xml-p1433540p1497984.bz22024-02-03 13:05 2.0G
[CMP]dewiki-20240201-pages-meta-history3.xml-p1497985p1567358.7z2024-02-04 12:56 281M
[ARC]dewiki-20240201-pages-meta-history3.xml-p1497985p1567358.bz22024-02-03 13:46 1.4G
[CMP]dewiki-20240201-pages-meta-history3.xml-p1567359p1634925.7z2024-02-04 12:59 297M
[ARC]dewiki-20240201-pages-meta-history3.xml-p1567359p1634925.bz22024-02-03 13:47 1.8G
[CMP]dewiki-20240201-pages-meta-history3.xml-p1634926p1694649.7z2024-02-04 13:02 317M
[ARC]dewiki-20240201-pages-meta-history3.xml-p1634926p1694649.bz22024-02-03 13:57 2.4G
[CMP]dewiki-20240201-pages-meta-history3.xml-p1694650p1760294.7z2024-02-04 12:58 336M
[ARC]dewiki-20240201-pages-meta-history3.xml-p1694650p1760294.bz22024-02-03 13:50 2.0G
[CMP]dewiki-20240201-pages-meta-history3.xml-p1760295p1833719.7z2024-02-04 13:01 322M
[ARC]dewiki-20240201-pages-meta-history3.xml-p1760295p1833719.bz22024-02-03 13:56 2.2G
[CMP]dewiki-20240201-pages-meta-history3.xml-p1833720p1906958.7z2024-02-04 12:58 336M
[ARC]dewiki-20240201-pages-meta-history3.xml-p1833720p1906958.bz22024-02-03 13:46 1.6G
[CMP]dewiki-20240201-pages-meta-history3.xml-p1906959p1987112.7z2024-02-04 13:21 336M
[ARC]dewiki-20240201-pages-meta-history3.xml-p1906959p1987112.bz22024-02-03 14:42 2.6G
[CMP]dewiki-20240201-pages-meta-history3.xml-p1987113p2094172.7z2024-02-04 13:16 280M
[ARC]dewiki-20240201-pages-meta-history3.xml-p1987113p2094172.bz22024-02-03 14:31 1.5G
[CMP]dewiki-20240201-pages-meta-history3.xml-p2094173p2176944.7z2024-02-04 13:17 303M
[ARC]dewiki-20240201-pages-meta-history3.xml-p2094173p2176944.bz22024-02-03 14:33 1.7G
[CMP]dewiki-20240201-pages-meta-history3.xml-p2176945p2271875.7z2024-02-04 13:20 335M
[ARC]dewiki-20240201-pages-meta-history3.xml-p2176945p2271875.bz22024-02-03 14:40 2.2G
[CMP]dewiki-20240201-pages-meta-history3.xml-p2271876p2373306.7z2024-02-04 13:15 316M
[ARC]dewiki-20240201-pages-meta-history3.xml-p2271876p2373306.bz22024-02-03 14:37 2.0G
[CMP]dewiki-20240201-pages-meta-history3.xml-p2373307p2483956.7z2024-02-04 13:19 311M
[ARC]dewiki-20240201-pages-meta-history3.xml-p2373307p2483956.bz22024-02-03 14:36 1.8G
[CMP]dewiki-20240201-pages-meta-history3.xml-p2483957p2593398.7z2024-02-04 13:40 341M
[ARC]dewiki-20240201-pages-meta-history3.xml-p2483957p2593398.bz22024-02-03 15:25 2.6G
[CMP]dewiki-20240201-pages-meta-history3.xml-p2593399p2667694.7z2024-02-04 13:41 302M
[ARC]dewiki-20240201-pages-meta-history3.xml-p2593399p2667694.bz22024-02-03 15:27 2.5G
[CMP]dewiki-20240201-pages-meta-history3.xml-p2667695p2747916.7z2024-02-04 13:41 366M
[ARC]dewiki-20240201-pages-meta-history3.xml-p2667695p2747916.bz22024-02-03 15:28 3.5G
[CMP]dewiki-20240201-pages-meta-history3.xml-p2747917p2834096.7z2024-02-04 13:38 317M
[ARC]dewiki-20240201-pages-meta-history3.xml-p2747917p2834096.bz22024-02-03 15:23 2.0G
[CMP]dewiki-20240201-pages-meta-history3.xml-p2834097p2929019.7z2024-02-04 13:38 327M
[ARC]dewiki-20240201-pages-meta-history3.xml-p2834097p2929019.bz22024-02-03 15:20 2.1G
[CMP]dewiki-20240201-pages-meta-history3.xml-p2929020p3031797.7z2024-02-04 13:35 326M
[ARC]dewiki-20240201-pages-meta-history3.xml-p2929020p3031797.bz22024-02-03 15:19 2.0G
[CMP]dewiki-20240201-pages-meta-history3.xml-p3031798p3093851.7z2024-02-04 14:00 291M
[ARC]dewiki-20240201-pages-meta-history3.xml-p3031798p3093851.bz22024-02-03 16:12 2.9G
[CMP]dewiki-20240201-pages-meta-history3.xml-p3093852p3187020.7z2024-02-04 13:57 337M
[ARC]dewiki-20240201-pages-meta-history3.xml-p3093852p3187020.bz22024-02-03 16:08 2.2G
[CMP]dewiki-20240201-pages-meta-history3.xml-p3187021p3307855.7z2024-02-04 13:55 325M
[ARC]dewiki-20240201-pages-meta-history3.xml-p3187021p3307855.bz22024-02-03 16:06 1.9G
[CMP]dewiki-20240201-pages-meta-history3.xml-p3307856p3376257.7z2024-02-04 13:50 224M
[ARC]dewiki-20240201-pages-meta-history3.xml-p3307856p3376257.bz22024-02-03 15:56 1.3G
[CMP]dewiki-20240201-pages-meta-history4.xml-p3376258p3471056.7z2024-02-04 13:57 327M
[ARC]dewiki-20240201-pages-meta-history4.xml-p3376258p3471056.bz22024-02-03 16:02 2.1G
[CMP]dewiki-20240201-pages-meta-history4.xml-p3471057p3578404.7z2024-02-04 13:56 361M
[ARC]dewiki-20240201-pages-meta-history4.xml-p3471057p3578404.bz22024-02-03 16:04 1.9G
[CMP]dewiki-20240201-pages-meta-history4.xml-p3578405p3679937.7z2024-02-04 14:19 337M
[ARC]dewiki-20240201-pages-meta-history4.xml-p3578405p3679937.bz22024-02-03 16:46 1.7G
[CMP]dewiki-20240201-pages-meta-history4.xml-p3679938p3774014.7z2024-02-04 14:18 362M
[ARC]dewiki-20240201-pages-meta-history4.xml-p3679938p3774014.bz22024-02-03 16:51 2.2G
[CMP]dewiki-20240201-pages-meta-history4.xml-p3774015p3869573.7z2024-02-04 14:23 361M
[ARC]dewiki-20240201-pages-meta-history4.xml-p3774015p3869573.bz22024-02-03 16:59 2.5G
[CMP]dewiki-20240201-pages-meta-history4.xml-p3869574p3984516.7z2024-02-04 14:20 315M
[ARC]dewiki-20240201-pages-meta-history4.xml-p3869574p3984516.bz22024-02-03 16:47 1.7G
[CMP]dewiki-20240201-pages-meta-history4.xml-p3984517p4097359.7z2024-02-04 14:15 333M
[ARC]dewiki-20240201-pages-meta-history4.xml-p3984517p4097359.bz22024-02-03 16:53 1.9G
[CMP]dewiki-20240201-pages-meta-history4.xml-p4097360p4197019.7z2024-02-04 14:16 354M
[ARC]dewiki-20240201-pages-meta-history4.xml-p4097360p4197019.bz22024-02-03 16:57 2.4G
[CMP]dewiki-20240201-pages-meta-history4.xml-p4197020p4297160.7z2024-02-04 14:45 400M
[ARC]dewiki-20240201-pages-meta-history4.xml-p4197020p4297160.bz22024-02-03 17:45 2.6G
[CMP]dewiki-20240201-pages-meta-history4.xml-p4297161p4335009.7z2024-02-04 14:39 246M
[ARC]dewiki-20240201-pages-meta-history4.xml-p4297161p4335009.bz22024-02-03 17:48 2.9G
[CMP]dewiki-20240201-pages-meta-history4.xml-p4335010p4398102.7z2024-02-04 14:46 367M
[ARC]dewiki-20240201-pages-meta-history4.xml-p4335010p4398102.bz22024-02-03 17:47 3.4G
[CMP]dewiki-20240201-pages-meta-history4.xml-p4398103p4470219.7z2024-02-04 14:43 331M
[ARC]dewiki-20240201-pages-meta-history4.xml-p4398103p4470219.bz22024-02-03 17:49 3.0G
[CMP]dewiki-20240201-pages-meta-history4.xml-p4470220p4561847.7z2024-02-04 14:41 340M
[ARC]dewiki-20240201-pages-meta-history4.xml-p4470220p4561847.bz22024-02-03 17:33 1.9G
[CMP]dewiki-20240201-pages-meta-history4.xml-p4561848p4672027.7z2024-02-04 14:38 401M
[ARC]dewiki-20240201-pages-meta-history4.xml-p4561848p4672027.bz22024-02-03 17:43 2.8G
[CMP]dewiki-20240201-pages-meta-history4.xml-p4672028p4791993.7z2024-02-04 15:08 359M
[ARC]dewiki-20240201-pages-meta-history4.xml-p4672028p4791993.bz22024-02-03 18:37 2.8G
[CMP]dewiki-20240201-pages-meta-history4.xml-p4791994p4881896.7z2024-02-04 15:08 379M
[ARC]dewiki-20240201-pages-meta-history4.xml-p4791994p4881896.bz22024-02-03 18:39 3.5G
[CMP]dewiki-20240201-pages-meta-history4.xml-p4881897p4989484.7z2024-02-04 15:02 336M
[ARC]dewiki-20240201-pages-meta-history4.xml-p4881897p4989484.bz22024-02-03 18:35 2.5G
[CMP]dewiki-20240201-pages-meta-history4.xml-p4989485p5070508.7z2024-02-04 15:02 348M
[ARC]dewiki-20240201-pages-meta-history4.xml-p4989485p5070508.bz22024-02-03 18:37 3.0G
[CMP]dewiki-20240201-pages-meta-history4.xml-p5070509p5190344.7z2024-02-04 15:06 366M
[ARC]dewiki-20240201-pages-meta-history4.xml-p5070509p5190344.bz22024-02-03 18:38 2.8G
[CMP]dewiki-20240201-pages-meta-history4.xml-p5190345p5305108.7z2024-02-04 15:08 334M
[ARC]dewiki-20240201-pages-meta-history4.xml-p5190345p5305108.bz22024-02-03 18:35 2.2G
[CMP]dewiki-20240201-pages-meta-history4.xml-p5305109p5394864.7z2024-02-04 15:28 327M
[ARC]dewiki-20240201-pages-meta-history4.xml-p5305109p5394864.bz22024-02-03 19:29 2.6G
[CMP]dewiki-20240201-pages-meta-history4.xml-p5394865p5502284.7z2024-02-04 15:28 376M
[ARC]dewiki-20240201-pages-meta-history4.xml-p5394865p5502284.bz22024-02-03 19:30 2.9G
[CMP]dewiki-20240201-pages-meta-history4.xml-p5502285p5609404.7z2024-02-04 15:21 349M
[ARC]dewiki-20240201-pages-meta-history4.xml-p5502285p5609404.bz22024-02-03 19:15 2.2G
[CMP]dewiki-20240201-pages-meta-history4.xml-p5609405p5729958.7z2024-02-04 15:26 359M
[ARC]dewiki-20240201-pages-meta-history4.xml-p5609405p5729958.bz22024-02-03 19:27 2.6G
[CMP]dewiki-20240201-pages-meta-history4.xml-p5729959p5856027.7z2024-02-04 15:24 398M
[ARC]dewiki-20240201-pages-meta-history4.xml-p5729959p5856027.bz22024-02-03 19:33 3.1G
[CMP]dewiki-20240201-pages-meta-history4.xml-p5856028p5940824.7z2024-02-04 15:27 310M
[ARC]dewiki-20240201-pages-meta-history4.xml-p5856028p5940824.bz22024-02-03 19:28 2.2G
[CMP]dewiki-20240201-pages-meta-history4.xml-p5940825p6065649.7z2024-02-04 15:44 384M
[ARC]dewiki-20240201-pages-meta-history4.xml-p5940825p6065649.bz22024-02-03 20:21 2.5G
[CMP]dewiki-20240201-pages-meta-history4.xml-p6065650p6115464.7z2024-02-04 15:40 224M
[ARC]dewiki-20240201-pages-meta-history4.xml-p6065650p6115464.bz22024-02-03 20:10 1.9G
[CMP]dewiki-20240201-pages-meta-history5.xml-p6115465p6232313.7z2024-02-04 15:44 367M
[ARC]dewiki-20240201-pages-meta-history5.xml-p6115465p6232313.bz22024-02-03 20:14 2.7G
[CMP]dewiki-20240201-pages-meta-history5.xml-p6232314p6313943.7z2024-02-04 15:43 327M
[ARC]dewiki-20240201-pages-meta-history5.xml-p6232314p6313943.bz22024-02-03 20:20 2.7G
[CMP]dewiki-20240201-pages-meta-history5.xml-p6313944p6406249.7z2024-02-04 15:44 352M
[ARC]dewiki-20240201-pages-meta-history5.xml-p6313944p6406249.bz22024-02-03 20:22 2.8G
[CMP]dewiki-20240201-pages-meta-history5.xml-p6406250p6498560.7z2024-02-04 15:44 355M
[ARC]dewiki-20240201-pages-meta-history5.xml-p6406250p6498560.bz22024-02-03 20:22 3.0G
[CMP]dewiki-20240201-pages-meta-history5.xml-p6498561p6529924.7z2024-02-04 16:14 475M
[ARC]dewiki-20240201-pages-meta-history5.xml-p6498561p6529924.bz22024-02-03 21:57 7.6G
[CMP]dewiki-20240201-pages-meta-history5.xml-p6529925p6612033.7z2024-02-04 16:09 442M
[ARC]dewiki-20240201-pages-meta-history5.xml-p6529925p6612033.bz22024-02-03 21:44 5.0G
[CMP]dewiki-20240201-pages-meta-history5.xml-p6612034p6678852.7z2024-02-04 16:11 550M
[ARC]dewiki-20240201-pages-meta-history5.xml-p6612034p6678852.bz22024-02-03 22:05 7.2G
[CMP]dewiki-20240201-pages-meta-history5.xml-p6678853p6735278.7z2024-02-04 15:59 294M
[ARC]dewiki-20240201-pages-meta-history5.xml-p6678853p6735278.bz22024-02-03 21:07 3.3G
[CMP]dewiki-20240201-pages-meta-history5.xml-p6735279p6837555.7z2024-02-04 15:59 347M
[ARC]dewiki-20240201-pages-meta-history5.xml-p6735279p6837555.bz22024-02-03 21:02 2.5G
[CMP]dewiki-20240201-pages-meta-history5.xml-p6837556p6950682.7z2024-02-04 15:58 363M
[ARC]dewiki-20240201-pages-meta-history5.xml-p6837556p6950682.bz22024-02-03 21:06 2.2G
[CMP]dewiki-20240201-pages-meta-history5.xml-p6950683p6991014.7z2024-02-04 16:30 258M
[ARC]dewiki-20240201-pages-meta-history5.xml-p6950683p6991014.bz22024-02-03 22:52 2.5G
[CMP]dewiki-20240201-pages-meta-history5.xml-p6991015p7076403.7z2024-02-04 16:50 725M
[ARC]dewiki-20240201-pages-meta-history5.xml-p6991015p7076403.bz22024-02-03 23:54 10G
[CMP]dewiki-20240201-pages-meta-history5.xml-p7076404p7165993.7z2024-02-04 16:32 401M
[ARC]dewiki-20240201-pages-meta-history5.xml-p7076404p7165993.bz22024-02-03 22:50 2.3G
[CMP]dewiki-20240201-pages-meta-history5.xml-p7165994p7367433.7z2024-02-04 16:25 332M
[ARC]dewiki-20240201-pages-meta-history5.xml-p7165994p7367433.bz22024-02-03 22:34 1.6G
[CMP]dewiki-20240201-pages-meta-history5.xml-p7367434p7491223.7z2024-02-04 16:29 457M
[ARC]dewiki-20240201-pages-meta-history5.xml-p7367434p7491223.bz22024-02-03 22:50 3.0G
[CMP]dewiki-20240201-pages-meta-history5.xml-p7491224p7611161.7z2024-02-04 16:29 370M
[ARC]dewiki-20240201-pages-meta-history5.xml-p7491224p7611161.bz22024-02-03 22:50 2.2G
[CMP]dewiki-20240201-pages-meta-history5.xml-p7611162p7717785.7z2024-02-04 17:05 385M
[ARC]dewiki-20240201-pages-meta-history5.xml-p7611162p7717785.bz22024-02-04 00:34 2.8G
[CMP]dewiki-20240201-pages-meta-history5.xml-p7717786p7827229.7z2024-02-04 17:03 362M
[ARC]dewiki-20240201-pages-meta-history5.xml-p7717786p7827229.bz22024-02-04 00:40 2.3G
[CMP]dewiki-20240201-pages-meta-history5.xml-p7827230p7959542.7z2024-02-04 17:02 338M
[ARC]dewiki-20240201-pages-meta-history5.xml-p7827230p7959542.bz22024-02-04 00:35 1.6G
[CMP]dewiki-20240201-pages-meta-history5.xml-p7959543p8053311.7z2024-02-04 17:03 382M
[ARC]dewiki-20240201-pages-meta-history5.xml-p7959543p8053311.bz22024-02-04 00:42 2.8G
[CMP]dewiki-20240201-pages-meta-history5.xml-p8053312p8136993.7z2024-02-04 17:03 355M
[ARC]dewiki-20240201-pages-meta-history5.xml-p8053312p8136993.bz22024-02-04 00:46 3.1G
[CMP]dewiki-20240201-pages-meta-history5.xml-p8136994p8247726.7z2024-02-04 17:05 378M
[ARC]dewiki-20240201-pages-meta-history5.xml-p8136994p8247726.bz22024-02-04 00:42 2.4G
[CMP]dewiki-20240201-pages-meta-history5.xml-p8247727p8373258.7z2024-02-04 17:18 385M
[ARC]dewiki-20240201-pages-meta-history5.xml-p8247727p8373258.bz22024-02-04 01:30 2.1G
[CMP]dewiki-20240201-pages-meta-history5.xml-p8373259p8489384.7z2024-02-04 17:18 400M
[ARC]dewiki-20240201-pages-meta-history5.xml-p8373259p8489384.bz22024-02-04 01:34 2.3G
[CMP]dewiki-20240201-pages-meta-history5.xml-p8489385p8609733.7z2024-02-04 17:18 399M
[ARC]dewiki-20240201-pages-meta-history5.xml-p8489385p8609733.bz22024-02-04 01:33 2.3G
[CMP]dewiki-20240201-pages-meta-history5.xml-p8609734p8825546.7z2024-02-04 17:15 305M
[ARC]dewiki-20240201-pages-meta-history5.xml-p8609734p8825546.bz22024-02-04 01:21 1.5G
[CMP]dewiki-20240201-pages-meta-history5.xml-p8825547p8937706.7z2024-02-04 17:18 379M
[ARC]dewiki-20240201-pages-meta-history5.xml-p8825547p8937706.bz22024-02-04 01:30 2.2G
[CMP]dewiki-20240201-pages-meta-history5.xml-p8937707p9023998.7z2024-02-04 17:18 343M
[ARC]dewiki-20240201-pages-meta-history5.xml-p8937707p9023998.bz22024-02-04 01:33 2.5G
[CMP]dewiki-20240201-pages-meta-history5.xml-p9023999p9082373.7z2024-02-04 18:05 799M
[ARC]dewiki-20240201-pages-meta-history5.xml-p9023999p9082373.bz22024-02-04 04:09 13G
[CMP]dewiki-20240201-pages-meta-history5.xml-p9082374p9198414.7z2024-02-04 17:33 555M
[ARC]dewiki-20240201-pages-meta-history5.xml-p9082374p9198414.bz22024-02-04 02:37 4.5G
[CMP]dewiki-20240201-pages-meta-history5.xml-p9198415p9261244.7z2024-02-04 17:23 114M
[ARC]dewiki-20240201-pages-meta-history5.xml-p9198415p9261244.bz22024-02-04 01:50 654M
[CMP]dewiki-20240201-pages-meta-history6.xml-p9261245p9438967.7z2024-02-04 17:32 416M
[ARC]dewiki-20240201-pages-meta-history6.xml-p9261245p9438967.bz22024-02-04 02:14 2.3G
[CMP]dewiki-20240201-pages-meta-history6.xml-p9438968p9569700.7z2024-02-04 17:32 415M
[ARC]dewiki-20240201-pages-meta-history6.xml-p9438968p9569700.bz22024-02-04 02:23 2.6G
[CMP]dewiki-20240201-pages-meta-history6.xml-p9569701p9695944.7z2024-02-04 17:32 419M
[ARC]dewiki-20240201-pages-meta-history6.xml-p9569701p9695944.bz22024-02-04 02:22 2.5G
[CMP]dewiki-20240201-pages-meta-history6.xml-p9695945p9791990.7z2024-02-04 18:19 379M
[ARC]dewiki-20240201-pages-meta-history6.xml-p9695945p9791990.bz22024-02-04 04:52 3.0G
[CMP]dewiki-20240201-pages-meta-history6.xml-p9791991p9940836.7z2024-02-04 18:19 381M
[ARC]dewiki-20240201-pages-meta-history6.xml-p9791991p9940836.bz22024-02-04 04:51 2.0G
[CMP]dewiki-20240201-pages-meta-history6.xml-p9940837p9952139.7z2024-02-04 18:21 665M
[ARC]dewiki-20240201-pages-meta-history6.xml-p9940837p9952139.bz22024-02-04 04:56 3.2G
[CMP]dewiki-20240201-pages-meta-history6.xml-p9952140p10042862.7z2024-02-04 18:20 552M
[ARC]dewiki-20240201-pages-meta-history6.xml-p9952140p10042862.bz22024-02-04 04:56 2.7G
[CMP]dewiki-20240201-pages-meta-history6.xml-p10042863p10103028.7z2024-02-04 18:20 307M
[ARC]dewiki-20240201-pages-meta-history6.xml-p10042863p10103028.bz22024-02-04 04:52 2.0G
[CMP]dewiki-20240201-pages-meta-history6.xml-p10103029p10247541.7z2024-02-04 18:21 426M
[ARC]dewiki-20240201-pages-meta-history6.xml-p10103029p10247541.bz22024-02-04 04:53 2.4G
[CMP]dewiki-20240201-pages-meta-history6.xml-p10247542p10256540.7z2024-02-04 18:36 604M
[ARC]dewiki-20240201-pages-meta-history6.xml-p10247542p10256540.bz22024-02-04 05:44 2.8G
[CMP]dewiki-20240201-pages-meta-history6.xml-p10256541p10368950.7z2024-02-04 18:36 398M
[ARC]dewiki-20240201-pages-meta-history6.xml-p10256541p10368950.bz22024-02-04 05:43 2.5G
[CMP]dewiki-20240201-pages-meta-history6.xml-p10368951p10521940.7z2024-02-04 18:36 435M
[ARC]dewiki-20240201-pages-meta-history6.xml-p10368951p10521940.bz22024-02-04 05:42 2.5G
[CMP]dewiki-20240201-pages-meta-history6.xml-p10521941p10676300.7z2024-02-04 18:36 446M
[ARC]dewiki-20240201-pages-meta-history6.xml-p10521941p10676300.bz22024-02-04 05:42 2.3G
[CMP]dewiki-20240201-pages-meta-history6.xml-p10676301p10803072.7z2024-02-04 18:35 483M
[ARC]dewiki-20240201-pages-meta-history6.xml-p10676301p10803072.bz22024-02-04 05:42 2.5G
[CMP]dewiki-20240201-pages-meta-history6.xml-p10803073p10978490.7z2024-02-04 18:34 403M
[ARC]dewiki-20240201-pages-meta-history6.xml-p10803073p10978490.bz22024-02-04 05:34 1.7G
[CMP]dewiki-20240201-pages-meta-history6.xml-p10978491p11131901.7z2024-02-04 18:52 413M
[ARC]dewiki-20240201-pages-meta-history6.xml-p10978491p11131901.bz22024-02-04 06:32 2.7G
[CMP]dewiki-20240201-pages-meta-history6.xml-p11131902p11230078.7z2024-02-04 18:52 363M
[ARC]dewiki-20240201-pages-meta-history6.xml-p11131902p11230078.bz22024-02-04 06:34 3.3G
[CMP]dewiki-20240201-pages-meta-history6.xml-p11230079p11275748.7z2024-02-04 18:52 419M
[ARC]dewiki-20240201-pages-meta-history6.xml-p11230079p11275748.bz22024-02-04 06:35 4.5G
[CMP]dewiki-20240201-pages-meta-history6.xml-p11275749p11441233.7z2024-02-04 18:51 435M
[ARC]dewiki-20240201-pages-meta-history6.xml-p11275749p11441233.bz22024-02-04 06:28 2.3G
[CMP]dewiki-20240201-pages-meta-history6.xml-p11441234p11556277.7z2024-02-04 18:51 385M
[ARC]dewiki-20240201-pages-meta-history6.xml-p11441234p11556277.bz22024-02-04 06:34 3.2G
[CMP]dewiki-20240201-pages-meta-history6.xml-p11556278p11729040.7z2024-02-04 18:48 417M
[ARC]dewiki-20240201-pages-meta-history6.xml-p11556278p11729040.bz22024-02-04 06:21 1.9G
[CMP]dewiki-20240201-pages-meta-history6.xml-p11729041p11874568.7z2024-02-04 19:09 454M
[ARC]dewiki-20240201-pages-meta-history6.xml-p11729041p11874568.bz22024-02-04 07:18 3.5G
[CMP]dewiki-20240201-pages-meta-history6.xml-p11874569p12070003.7z2024-02-04 19:08 499M
[ARC]dewiki-20240201-pages-meta-history6.xml-p11874569p12070003.bz22024-02-04 07:20 3.5G
[CMP]dewiki-20240201-pages-meta-history6.xml-p12070004p12258973.7z2024-02-04 19:08 425M
[ARC]dewiki-20240201-pages-meta-history6.xml-p12070004p12258973.bz22024-02-04 07:15 2.3G
[CMP]dewiki-20240201-pages-meta-history6.xml-p12258974p12464488.7z2024-02-04 19:06 400M
[ARC]dewiki-20240201-pages-meta-history6.xml-p12258974p12464488.bz22024-02-04 07:10 1.6G
[CMP]dewiki-20240201-pages-meta-history6.xml-p12464489p12675306.7z2024-02-04 19:06 416M
[ARC]dewiki-20240201-pages-meta-history6.xml-p12464489p12675306.bz22024-02-04 07:11 1.9G
[CMP]dewiki-20240201-pages-meta-history6.xml-p12675307p12890514.7z2024-02-04 19:07 400M
[ARC]dewiki-20240201-pages-meta-history6.xml-p12675307p12890514.bz22024-02-04 07:11 1.9G
[CMP]dewiki-20240201-pages-meta-history6.xml-p12890515p12978624.7z2024-02-04 19:13 160M
[ARC]dewiki-20240201-pages-meta-history6.xml-p12890515p12978624.bz22024-02-04 07:47 796M
[ARC]dewiki-20240201-protected_titles.sql.gz2024-02-01 16:06 3.7M
[ARC]dewiki-20240201-redirect.sql.gz2024-02-01 16:06 24M
[TXT]dewiki-20240201-runsettings.txt2024-02-01 12:14 84
[   ]dewiki-20240201-sha1sums.json2024-02-04 19:30 47K
[TXT]dewiki-20240201-sha1sums.txt2024-02-04 19:30 45K
[ARC]dewiki-20240201-site_stats.sql.gz2024-02-01 15:45 826
[ARC]dewiki-20240201-siteinfo-namespaces.json.gz2024-02-03 01:09 6.2K
[ARC]dewiki-20240201-siteinfo2-namespacesv2.json.gz2024-02-03 01:09 6.4K
[ARC]dewiki-20240201-sites.sql.gz2024-02-01 16:25 22K
[ARC]dewiki-20240201-stub-articles.xml.gz2024-02-01 15:34 562M
[ARC]dewiki-20240201-stub-articles1.xml.gz2024-02-01 14:37 17M
[ARC]dewiki-20240201-stub-articles2.xml.gz2024-02-01 14:47 42M
[ARC]dewiki-20240201-stub-articles3.xml.gz2024-02-01 14:58 74M
[ARC]dewiki-20240201-stub-articles4.xml.gz2024-02-01 15:07 102M
[ARC]dewiki-20240201-stub-articles5.xml.gz2024-02-01 15:15 140M
[ARC]dewiki-20240201-stub-articles6.xml.gz2024-02-01 14:57 188M
[ARC]dewiki-20240201-stub-meta-current.xml.gz2024-02-01 15:33 806M
[ARC]dewiki-20240201-stub-meta-current1.xml.gz2024-02-01 14:37 20M
[ARC]dewiki-20240201-stub-meta-current2.xml.gz2024-02-01 14:47 56M
[ARC]dewiki-20240201-stub-meta-current3.xml.gz2024-02-01 14:58 108M
[ARC]dewiki-20240201-stub-meta-current4.xml.gz2024-02-01 15:07 150M
[ARC]dewiki-20240201-stub-meta-current5.xml.gz2024-02-01 15:15 205M
[ARC]dewiki-20240201-stub-meta-current6.xml.gz2024-02-01 14:57 267M
[ARC]dewiki-20240201-stub-meta-history.xml.gz2024-02-01 15:33 16G
[ARC]dewiki-20240201-stub-meta-history1.xml.gz2024-02-01 14:37 2.6G
[ARC]dewiki-20240201-stub-meta-history2.xml.gz2024-02-01 14:47 2.7G
[ARC]dewiki-20240201-stub-meta-history3.xml.gz2024-02-01 14:58 2.7G
[ARC]dewiki-20240201-stub-meta-history4.xml.gz2024-02-01 15:07 2.7G
[ARC]dewiki-20240201-stub-meta-history5.xml.gz2024-02-01 15:15 2.7G
[ARC]dewiki-20240201-stub-meta-history6.xml.gz2024-02-01 14:57 2.3G
[ARC]dewiki-20240201-templatelinks.sql.gz2024-02-01 15:58 239M
[ARC]dewiki-20240201-user_former_groups.sql.gz2024-02-01 16:04 7.7K
[ARC]dewiki-20240201-user_groups.sql.gz2024-02-01 16:03 215K
[ARC]dewiki-20240201-wbc_entity_usage.sql.gz2024-02-01 16:26 172M
[   ]dumpruninfo.json2024-02-04 19:32 3.7K
[TXT]dumpruninfo.txt2024-02-04 19:32 3.2K
[   ]dumpspecialfiles.json2024-02-04 19:30 127
[   ]dumpstatus.json2024-02-04 19:30 121K
[HTM]index.html2024-02-04 19:30 92K
[TXT]md5sums-dewiki-20240201-abstract.xml.gz.txt2024-02-03 05:02 66
[TXT]md5sums-dewiki-20240201-abstract1.xml.gz.txt2024-02-03 05:02 67
[TXT]md5sums-dewiki-20240201-abstract2.xml.gz.txt2024-02-03 05:02 67
[TXT]md5sums-dewiki-20240201-abstract3.xml.gz.txt2024-02-03 05:02 67
[TXT]md5sums-dewiki-20240201-abstract4.xml.gz.txt2024-02-03 05:02 67
[TXT]md5sums-dewiki-20240201-abstract5.xml.gz.txt2024-02-03 05:02 67
[TXT]md5sums-dewiki-20240201-abstract6.xml.gz.txt2024-02-03 05:02 67
[TXT]md5sums-dewiki-20240201-all-titles-in-ns0.gz.txt2024-02-03 01:10 71
[TXT]md5sums-dewiki-20240201-all-titles.gz.txt2024-02-03 01:10 64
[TXT]md5sums-dewiki-20240201-babel.sql.gz.txt2024-02-01 16:26 63
[TXT]md5sums-dewiki-20240201-category.sql.gz.txt2024-02-01 16:04 66
[TXT]md5sums-dewiki-20240201-categorylinks.sql.gz.txt2024-02-01 15:55 71
[TXT]md5sums-dewiki-20240201-change_tag.sql.gz.txt2024-02-01 16:09 68
[TXT]md5sums-dewiki-20240201-change_tag_def.sql.gz.txt2024-02-01 16:09 72
[TXT]md5sums-dewiki-20240201-externallinks.sql.gz.txt2024-02-01 16:01 71
[TXT]md5sums-dewiki-20240201-flaggedpage_config.sql.gz.txt2024-02-01 16:16 76
[TXT]md5sums-dewiki-20240201-flaggedpage_pending.sql.gz.txt2024-02-01 16:16 77
[TXT]md5sums-dewiki-20240201-flaggedpages.sql.gz.txt2024-02-01 16:10 70
[TXT]md5sums-dewiki-20240201-flaggedrevs.sql.gz.txt2024-02-01 16:15 69
[TXT]md5sums-dewiki-20240201-flaggedrevs_promote.sql.gz.txt2024-02-01 16:16 77
[TXT]md5sums-dewiki-20240201-flaggedrevs_statistics.sql.gz.txt2024-02-01 16:17 80
[TXT]md5sums-dewiki-20240201-flaggedrevs_tracking.sql.gz.txt2024-02-01 16:17 78
[TXT]md5sums-dewiki-20240201-flaggedtemplates.sql.gz.txt2024-02-01 16:24 74
[TXT]md5sums-dewiki-20240201-geo_tags.sql.gz.txt2024-02-01 16:07 66
[TXT]md5sums-dewiki-20240201-image.sql.gz.txt2024-02-01 15:46 63
[TXT]md5sums-dewiki-20240201-imagelinks.sql.gz.txt2024-02-01 15:56 68
[TXT]md5sums-dewiki-20240201-iwlinks.sql.gz.txt2024-02-01 16:07 65
[TXT]md5sums-dewiki-20240201-langlinks.sql.gz.txt2024-02-01 16:03 67
[TXT]md5sums-dewiki-20240201-linktarget.sql.gz.txt2024-02-01 15:59 68
[TXT]md5sums-dewiki-20240201-page.sql.gz.txt2024-02-01 16:05 62
[TXT]md5sums-dewiki-20240201-page_props.sql.gz.txt2024-02-01 16:06 68
[TXT]md5sums-dewiki-20240201-page_restrictions.sql.gz.txt2024-02-01 16:05 75
[TXT]md5sums-dewiki-20240201-pagelinks.sql.gz.txt2024-02-01 15:52 67
[TXT]md5sums-dewiki-20240201-pages-articles-multistream-index.txt.bz2.txt2024-02-02 03:58 91
[TXT]md5sums-dewiki-20240201-pages-articles-multistream-index1.txt-p1p297012.bz2.txt2024-02-02 03:44 102
[TXT]md5sums-dewiki-20240201-pages-articles-multistream-index2.txt-p297013p1262093.bz2.txt2024-02-02 03:44 108
[TXT]md5sums-dewiki-20240201-pages-articles-multistream-index3.txt-p1262094p2762093.bz2.txt2024-02-02 03:44 109
[TXT]md5sums-dewiki-20240201-pages-articles-multistream-index3.txt-p2762094p3376257.bz2.txt2024-02-02 03:44 109
[TXT]md5sums-dewiki-20240201-pages-articles-multistream-index4.txt-p3376258p4876257.bz2.txt2024-02-02 03:45 109
[TXT]md5sums-dewiki-20240201-pages-articles-multistream-index4.txt-p4876258p6115464.bz2.txt2024-02-02 03:45 109
[TXT]md5sums-dewiki-20240201-pages-articles-multistream-index5.txt-p6115465p7615464.bz2.txt2024-02-02 03:45 109
[TXT]md5sums-dewiki-20240201-pages-articles-multistream-index5.txt-p7615465p9115464.bz2.txt2024-02-02 03:45 109
[TXT]md5sums-dewiki-20240201-pages-articles-multistream-index5.txt-p9115465p9261244.bz2.txt2024-02-02 03:46 109
[TXT]md5sums-dewiki-20240201-pages-articles-multistream-index6.txt-p9261245p10761244.bz2.txt2024-02-02 03:46 110
[TXT]md5sums-dewiki-20240201-pages-articles-multistream-index6.txt-p10761245p12261244.bz2.txt2024-02-02 03:46 111
[TXT]md5sums-dewiki-20240201-pages-articles-multistream-index6.txt-p12261245p12978619.bz2.txt2024-02-02 03:46 111
[TXT]md5sums-dewiki-20240201-pages-articles-multistream.xml.bz2.txt2024-02-02 03:57 85
[TXT]md5sums-dewiki-20240201-pages-articles-multistream1.xml-p1p297012.bz2.txt2024-02-02 03:44 96
[TXT]md5sums-dewiki-20240201-pages-articles-multistream2.xml-p297013p1262093.bz2.txt2024-02-02 03:44 102
[TXT]md5sums-dewiki-20240201-pages-articles-multistream3.xml-p1262094p2762093.bz2.txt2024-02-02 03:44 103
[TXT]md5sums-dewiki-20240201-pages-articles-multistream3.xml-p2762094p3376257.bz2.txt2024-02-02 03:44 103
[TXT]md5sums-dewiki-20240201-pages-articles-multistream4.xml-p3376258p4876257.bz2.txt2024-02-02 03:45 103
[TXT]md5sums-dewiki-20240201-pages-articles-multistream4.xml-p4876258p6115464.bz2.txt2024-02-02 03:45 103
[TXT]md5sums-dewiki-20240201-pages-articles-multistream5.xml-p6115465p7615464.bz2.txt2024-02-02 03:45 103
[TXT]md5sums-dewiki-20240201-pages-articles-multistream5.xml-p7615465p9115464.bz2.txt2024-02-02 03:45 103
[TXT]md5sums-dewiki-20240201-pages-articles-multistream5.xml-p9115465p9261244.bz2.txt2024-02-02 03:45 103
[TXT]md5sums-dewiki-20240201-pages-articles-multistream6.xml-p9261245p10761244.bz2.txt2024-02-02 03:46 104
[TXT]md5sums-dewiki-20240201-pages-articles-multistream6.xml-p10761245p12261244.bz2.txt2024-02-02 03:46 105
[TXT]md5sums-dewiki-20240201-pages-articles-multistream6.xml-p12261245p12978619.bz2.txt2024-02-02 03:46 105
[TXT]md5sums-dewiki-20240201-pages-articles.xml.bz2.txt2024-02-01 19:17 73
[TXT]md5sums-dewiki-20240201-pages-articles1.xml-p1p297012.bz2.txt2024-02-01 18:35 84
[TXT]md5sums-dewiki-20240201-pages-articles2.xml-p297013p1262093.bz2.txt2024-02-01 18:35 90
[TXT]md5sums-dewiki-20240201-pages-articles3.xml-p1262094p2762093.bz2.txt2024-02-01 18:36 91
[TXT]md5sums-dewiki-20240201-pages-articles3.xml-p2762094p3376257.bz2.txt2024-02-01 18:36 91
[TXT]md5sums-dewiki-20240201-pages-articles4.xml-p3376258p4876257.bz2.txt2024-02-01 18:36 91
[TXT]md5sums-dewiki-20240201-pages-articles4.xml-p4876258p6115464.bz2.txt2024-02-01 18:36 91
[TXT]md5sums-dewiki-20240201-pages-articles5.xml-p6115465p7615464.bz2.txt2024-02-01 18:36 91
[TXT]md5sums-dewiki-20240201-pages-articles5.xml-p7615465p9115464.bz2.txt2024-02-01 18:37 91
[TXT]md5sums-dewiki-20240201-pages-articles5.xml-p9115465p9261244.bz2.txt2024-02-01 18:37 91
[TXT]md5sums-dewiki-20240201-pages-articles6.xml-p9261245p10761244.bz2.txt2024-02-01 18:37 92
[TXT]md5sums-dewiki-20240201-pages-articles6.xml-p10761245p12261244.bz2.txt2024-02-01 18:37 93
[TXT]md5sums-dewiki-20240201-pages-articles6.xml-p12261245p12978619.bz2.txt2024-02-01 18:38 93
[TXT]md5sums-dewiki-20240201-pages-logging.xml.gz.txt2024-02-03 05:15 71
[TXT]md5sums-dewiki-20240201-pages-logging1.xml.gz.txt2024-02-03 05:13 72
[TXT]md5sums-dewiki-20240201-pages-logging2.xml.gz.txt2024-02-03 05:13 72
[TXT]md5sums-dewiki-20240201-pages-logging3.xml.gz.txt2024-02-03 05:13 72
[TXT]md5sums-dewiki-20240201-pages-logging4.xml.gz.txt2024-02-03 05:13 72
[TXT]md5sums-dewiki-20240201-pages-logging5.xml.gz.txt2024-02-03 05:14 72
[TXT]md5sums-dewiki-20240201-pages-logging6.xml.gz.txt2024-02-03 05:14 72
[TXT]md5sums-dewiki-20240201-pages-meta-current.xml.bz2.txt2024-02-02 16:22 77
[TXT]md5sums-dewiki-20240201-pages-meta-current1.xml-p1p297012.bz2.txt2024-02-02 15:36 88
[TXT]md5sums-dewiki-20240201-pages-meta-current2.xml-p297013p1262093.bz2.txt2024-02-02 15:36 94
[TXT]md5sums-dewiki-20240201-pages-meta-current3.xml-p1262094p2762093.bz2.txt2024-02-02 15:37 95
[TXT]md5sums-dewiki-20240201-pages-meta-current3.xml-p2762094p3376257.bz2.txt2024-02-02 15:37 95
[TXT]md5sums-dewiki-20240201-pages-meta-current4.xml-p3376258p4876257.bz2.txt2024-02-02 15:37 95
[TXT]md5sums-dewiki-20240201-pages-meta-current4.xml-p4876258p6115464.bz2.txt2024-02-02 15:38 95
[TXT]md5sums-dewiki-20240201-pages-meta-current5.xml-p6115465p7615464.bz2.txt2024-02-02 15:38 95
[TXT]md5sums-dewiki-20240201-pages-meta-current5.xml-p7615465p9115464.bz2.txt2024-02-02 15:39 95
[TXT]md5sums-dewiki-20240201-pages-meta-current5.xml-p9115465p9261244.bz2.txt2024-02-02 15:39 95
[TXT]md5sums-dewiki-20240201-pages-meta-current6.xml-p9261245p10761244.bz2.txt2024-02-02 15:39 96
[TXT]md5sums-dewiki-20240201-pages-meta-current6.xml-p10761245p12261244.bz2.txt2024-02-02 15:40 97
[TXT]md5sums-dewiki-20240201-pages-meta-current6.xml-p12261245p12978624.bz2.txt2024-02-02 15:41 97
[TXT]md5sums-dewiki-20240201-pages-meta-history1.xml-p1p1313.7z.txt2024-02-04 19:13 85
[TXT]md5sums-dewiki-20240201-pages-meta-history1.xml-p1p1313.bz2.txt2024-02-04 07:48 86
[TXT]md5sums-dewiki-20240201-pages-meta-history1.xml-p1314p2909.7z.txt2024-02-04 19:13 88
[TXT]md5sums-dewiki-20240201-pages-meta-history1.xml-p1314p2909.bz2.txt2024-02-04 07:49 89
[TXT]md5sums-dewiki-20240201-pages-meta-history1.xml-p2910p4622.7z.txt2024-02-04 19:13 88
[TXT]md5sums-dewiki-20240201-pages-meta-history1.xml-p2910p4622.bz2.txt2024-02-04 07:49 89
[TXT]md5sums-dewiki-20240201-pages-meta-history1.xml-p4623p6017.7z.txt2024-02-04 19:13 88
[TXT]md5sums-dewiki-20240201-pages-meta-history1.xml-p4623p6017.bz2.txt2024-02-04 07:50 89
[TXT]md5sums-dewiki-20240201-pages-meta-history1.xml-p6018p8424.7z.txt2024-02-04 19:13 88
[TXT]md5sums-dewiki-20240201-pages-meta-history1.xml-p6018p8424.bz2.txt2024-02-04 07:51 89
[TXT]md5sums-dewiki-20240201-pages-meta-history1.xml-p8425p10469.7z.txt2024-02-04 19:13 89
[TXT]md5sums-dewiki-20240201-pages-meta-history1.xml-p8425p10469.bz2.txt2024-02-04 07:51 90
[TXT]md5sums-dewiki-20240201-pages-meta-history1.xml-p10470p12985.7z.txt2024-02-04 19:13 90
[TXT]md5sums-dewiki-20240201-pages-meta-history1.xml-p10470p12985.bz2.txt2024-02-04 07:52 91
[TXT]md5sums-dewiki-20240201-pages-meta-history1.xml-p12986p15865.7z.txt2024-02-04 19:13 90
[TXT]md5sums-dewiki-20240201-pages-meta-history1.xml-p12986p15865.bz2.txt2024-02-04 07:53 91
[TXT]md5sums-dewiki-20240201-pages-meta-history1.xml-p15866p18627.7z.txt2024-02-04 19:13 90
[TXT]md5sums-dewiki-20240201-pages-meta-history1.xml-p15866p18627.bz2.txt2024-02-04 07:53 91
[TXT]md5sums-dewiki-20240201-pages-meta-history1.xml-p18628p22849.7z.txt2024-02-04 19:13 90
[TXT]md5sums-dewiki-20240201-pages-meta-history1.xml-p18628p22849.bz2.txt2024-02-04 07:54 91
[TXT]md5sums-dewiki-20240201-pages-meta-history1.xml-p22850p28995.7z.txt2024-02-04 19:14 90
[TXT]md5sums-dewiki-20240201-pages-meta-history1.xml-p22850p28995.bz2.txt2024-02-04 07:55 91
[TXT]md5sums-dewiki-20240201-pages-meta-history1.xml-p28996p33481.7z.txt2024-02-04 19:14 90
[TXT]md5sums-dewiki-20240201-pages-meta-history1.xml-p28996p33481.bz2.txt2024-02-04 07:55 91
[TXT]md5sums-dewiki-20240201-pages-meta-history1.xml-p33482p40781.7z.txt2024-02-04 19:14 90
[TXT]md5sums-dewiki-20240201-pages-meta-history1.xml-p33482p40781.bz2.txt2024-02-04 07:56 91
[TXT]md5sums-dewiki-20240201-pages-meta-history1.xml-p40782p47908.7z.txt2024-02-04 19:14 90
[TXT]md5sums-dewiki-20240201-pages-meta-history1.xml-p40782p47908.bz2.txt2024-02-04 07:57 91
[TXT]md5sums-dewiki-20240201-pages-meta-history1.xml-p47909p54358.7z.txt2024-02-04 19:14 90
[TXT]md5sums-dewiki-20240201-pages-meta-history1.xml-p47909p54358.bz2.txt2024-02-04 07:57 91
[TXT]md5sums-dewiki-20240201-pages-meta-history1.xml-p54359p62165.7z.txt2024-02-04 19:14 90
[TXT]md5sums-dewiki-20240201-pages-meta-history1.xml-p54359p62165.bz2.txt2024-02-04 07:58 91
[TXT]md5sums-dewiki-20240201-pages-meta-history1.xml-p62166p72952.7z.txt2024-02-04 19:14 90
[TXT]md5sums-dewiki-20240201-pages-meta-history1.xml-p62166p72952.bz2.txt2024-02-04 07:59 91
[TXT]md5sums-dewiki-20240201-pages-meta-history1.xml-p72953p82659.7z.txt2024-02-04 19:14 90
[TXT]md5sums-dewiki-20240201-pages-meta-history1.xml-p72953p82659.bz2.txt2024-02-04 07:59 91
[TXT]md5sums-dewiki-20240201-pages-meta-history1.xml-p82660p94925.7z.txt2024-02-04 19:14 90
[TXT]md5sums-dewiki-20240201-pages-meta-history1.xml-p82660p94925.bz2.txt2024-02-04 08:00 91
[TXT]md5sums-dewiki-20240201-pages-meta-history1.xml-p94926p107634.7z.txt2024-02-04 19:14 91
[TXT]md5sums-dewiki-20240201-pages-meta-history1.xml-p94926p107634.bz2.txt2024-02-04 08:00 92
[TXT]md5sums-dewiki-20240201-pages-meta-history1.xml-p107635p121787.7z.txt2024-02-04 19:14 92
[TXT]md5sums-dewiki-20240201-pages-meta-history1.xml-p107635p121787.bz2.txt2024-02-04 08:01 93
[TXT]md5sums-dewiki-20240201-pages-meta-history1.xml-p121788p135576.7z.txt2024-02-04 19:14 92
[TXT]md5sums-dewiki-20240201-pages-meta-history1.xml-p121788p135576.bz2.txt2024-02-04 08:01 93
[TXT]md5sums-dewiki-20240201-pages-meta-history1.xml-p135577p150651.7z.txt2024-02-04 19:14 92
[TXT]md5sums-dewiki-20240201-pages-meta-history1.xml-p135577p150651.bz2.txt2024-02-04 08:02 93
[TXT]md5sums-dewiki-20240201-pages-meta-history1.xml-p150652p166640.7z.txt2024-02-04 19:15 92
[TXT]md5sums-dewiki-20240201-pages-meta-history1.xml-p150652p166640.bz2.txt2024-02-04 08:02 93
[TXT]md5sums-dewiki-20240201-pages-meta-history1.xml-p166641p183304.7z.txt2024-02-04 19:15 92
[TXT]md5sums-dewiki-20240201-pages-meta-history1.xml-p166641p183304.bz2.txt2024-02-04 08:03 93
[TXT]md5sums-dewiki-20240201-pages-meta-history1.xml-p183305p202354.7z.txt2024-02-04 19:15 92
[TXT]md5sums-dewiki-20240201-pages-meta-history1.xml-p183305p202354.bz2.txt2024-02-04 08:03 93
[TXT]md5sums-dewiki-20240201-pages-meta-history1.xml-p202355p222260.7z.txt2024-02-04 19:15 92
[TXT]md5sums-dewiki-20240201-pages-meta-history1.xml-p202355p222260.bz2.txt2024-02-04 08:04 93
[TXT]md5sums-dewiki-20240201-pages-meta-history1.xml-p222261p244791.7z.txt2024-02-04 19:15 92
[TXT]md5sums-dewiki-20240201-pages-meta-history1.xml-p222261p244791.bz2.txt2024-02-04 08:04 93
[TXT]md5sums-dewiki-20240201-pages-meta-history1.xml-p244792p266407.7z.txt2024-02-04 19:15 92
[TXT]md5sums-dewiki-20240201-pages-meta-history1.xml-p244792p266407.bz2.txt2024-02-04 08:05 93
[TXT]md5sums-dewiki-20240201-pages-meta-history1.xml-p266408p288842.7z.txt2024-02-04 19:15 92
[TXT]md5sums-dewiki-20240201-pages-meta-history1.xml-p266408p288842.bz2.txt2024-02-04 08:05 93
[TXT]md5sums-dewiki-20240201-pages-meta-history1.xml-p288843p297012.7z.txt2024-02-04 19:15 92
[TXT]md5sums-dewiki-20240201-pages-meta-history1.xml-p288843p297012.bz2.txt2024-02-04 08:06 93
[TXT]md5sums-dewiki-20240201-pages-meta-history2.xml-p297013p321961.7z.txt2024-02-04 19:15 92
[TXT]md5sums-dewiki-20240201-pages-meta-history2.xml-p297013p321961.bz2.txt2024-02-04 08:06 93
[TXT]md5sums-dewiki-20240201-pages-meta-history2.xml-p321962p347154.7z.txt2024-02-04 19:15 92
[TXT]md5sums-dewiki-20240201-pages-meta-history2.xml-p321962p347154.bz2.txt2024-02-04 08:07 93
[TXT]md5sums-dewiki-20240201-pages-meta-history2.xml-p347155p375313.7z.txt2024-02-04 19:15 92
[TXT]md5sums-dewiki-20240201-pages-meta-history2.xml-p347155p375313.bz2.txt2024-02-04 08:07 93
[TXT]md5sums-dewiki-20240201-pages-meta-history2.xml-p375314p403880.7z.txt2024-02-04 19:15 92
[TXT]md5sums-dewiki-20240201-pages-meta-history2.xml-p375314p403880.bz2.txt2024-02-04 08:08 93
[TXT]md5sums-dewiki-20240201-pages-meta-history2.xml-p403881p436201.7z.txt2024-02-04 19:15 92
[TXT]md5sums-dewiki-20240201-pages-meta-history2.xml-p403881p436201.bz2.txt2024-02-04 08:08 93
[TXT]md5sums-dewiki-20240201-pages-meta-history2.xml-p436202p463566.7z.txt2024-02-04 19:15 92
[TXT]md5sums-dewiki-20240201-pages-meta-history2.xml-p436202p463566.bz2.txt2024-02-04 08:09 93
[TXT]md5sums-dewiki-20240201-pages-meta-history2.xml-p463567p491678.7z.txt2024-02-04 19:16 92
[TXT]md5sums-dewiki-20240201-pages-meta-history2.xml-p463567p491678.bz2.txt2024-02-04 08:09 93
[TXT]md5sums-dewiki-20240201-pages-meta-history2.xml-p491679p525968.7z.txt2024-02-04 19:16 92
[TXT]md5sums-dewiki-20240201-pages-meta-history2.xml-p491679p525968.bz2.txt2024-02-04 08:09 93
[TXT]md5sums-dewiki-20240201-pages-meta-history2.xml-p525969p563538.7z.txt2024-02-04 19:16 92
[TXT]md5sums-dewiki-20240201-pages-meta-history2.xml-p525969p563538.bz2.txt2024-02-04 08:10 93
[TXT]md5sums-dewiki-20240201-pages-meta-history2.xml-p563539p601317.7z.txt2024-02-04 19:16 92
[TXT]md5sums-dewiki-20240201-pages-meta-history2.xml-p563539p601317.bz2.txt2024-02-04 08:10 93
[TXT]md5sums-dewiki-20240201-pages-meta-history2.xml-p601318p637884.7z.txt2024-02-04 19:16 92
[TXT]md5sums-dewiki-20240201-pages-meta-history2.xml-p601318p637884.bz2.txt2024-02-04 08:11 93
[TXT]md5sums-dewiki-20240201-pages-meta-history2.xml-p637885p676024.7z.txt2024-02-04 19:16 92
[TXT]md5sums-dewiki-20240201-pages-meta-history2.xml-p637885p676024.bz2.txt2024-02-04 08:11 93
[TXT]md5sums-dewiki-20240201-pages-meta-history2.xml-p676025p707926.7z.txt2024-02-04 19:16 92
[TXT]md5sums-dewiki-20240201-pages-meta-history2.xml-p676025p707926.bz2.txt2024-02-04 08:12 93
[TXT]md5sums-dewiki-20240201-pages-meta-history2.xml-p707927p746255.7z.txt2024-02-04 19:16 92
[TXT]md5sums-dewiki-20240201-pages-meta-history2.xml-p707927p746255.bz2.txt2024-02-04 08:12 93
[TXT]md5sums-dewiki-20240201-pages-meta-history2.xml-p746256p787364.7z.txt2024-02-04 19:16 92
[TXT]md5sums-dewiki-20240201-pages-meta-history2.xml-p746256p787364.bz2.txt2024-02-04 08:13 93
[TXT]md5sums-dewiki-20240201-pages-meta-history2.xml-p787365p826294.7z.txt2024-02-04 19:16 92
[TXT]md5sums-dewiki-20240201-pages-meta-history2.xml-p787365p826294.bz2.txt2024-02-04 08:13 93
[TXT]md5sums-dewiki-20240201-pages-meta-history2.xml-p826295p864694.7z.txt2024-02-04 19:16 92
[TXT]md5sums-dewiki-20240201-pages-meta-history2.xml-p826295p864694.bz2.txt2024-02-04 08:14 93
[TXT]md5sums-dewiki-20240201-pages-meta-history2.xml-p864695p909508.7z.txt2024-02-04 19:16 92
[TXT]md5sums-dewiki-20240201-pages-meta-history2.xml-p864695p909508.bz2.txt2024-02-04 08:15 93
[TXT]md5sums-dewiki-20240201-pages-meta-history2.xml-p909509p958774.7z.txt2024-02-04 19:17 92
[TXT]md5sums-dewiki-20240201-pages-meta-history2.xml-p909509p958774.bz2.txt2024-02-04 08:15 93
[TXT]md5sums-dewiki-20240201-pages-meta-history2.xml-p958775p1003452.7z.txt2024-02-04 19:17 93
[TXT]md5sums-dewiki-20240201-pages-meta-history2.xml-p958775p1003452.bz2.txt2024-02-04 08:16 94
[TXT]md5sums-dewiki-20240201-pages-meta-history2.xml-p1003453p1050118.7z.txt2024-02-04 19:17 94
[TXT]md5sums-dewiki-20240201-pages-meta-history2.xml-p1003453p1050118.bz2.txt2024-02-04 08:16 95
[TXT]md5sums-dewiki-20240201-pages-meta-history2.xml-p1050119p1106993.7z.txt2024-02-04 19:17 94
[TXT]md5sums-dewiki-20240201-pages-meta-history2.xml-p1050119p1106993.bz2.txt2024-02-04 08:17 95
[TXT]md5sums-dewiki-20240201-pages-meta-history2.xml-p1106994p1161020.7z.txt2024-02-04 19:17 94
[TXT]md5sums-dewiki-20240201-pages-meta-history2.xml-p1106994p1161020.bz2.txt2024-02-04 08:17 95
[TXT]md5sums-dewiki-20240201-pages-meta-history2.xml-p1161021p1217745.7z.txt2024-02-04 19:17 94
[TXT]md5sums-dewiki-20240201-pages-meta-history2.xml-p1161021p1217745.bz2.txt2024-02-04 08:18 95
[TXT]md5sums-dewiki-20240201-pages-meta-history2.xml-p1217746p1262093.7z.txt2024-02-04 19:17 94
[TXT]md5sums-dewiki-20240201-pages-meta-history2.xml-p1217746p1262093.bz2.txt2024-02-04 08:19 95
[TXT]md5sums-dewiki-20240201-pages-meta-history3.xml-p1262094p1318379.7z.txt2024-02-04 19:17 94
[TXT]md5sums-dewiki-20240201-pages-meta-history3.xml-p1262094p1318379.bz2.txt2024-02-04 08:20 95
[TXT]md5sums-dewiki-20240201-pages-meta-history3.xml-p1318380p1377557.7z.txt2024-02-04 19:17 94
[TXT]md5sums-dewiki-20240201-pages-meta-history3.xml-p1318380p1377557.bz2.txt2024-02-04 08:20 95
[TXT]md5sums-dewiki-20240201-pages-meta-history3.xml-p1377558p1433539.7z.txt2024-02-04 19:17 94
[TXT]md5sums-dewiki-20240201-pages-meta-history3.xml-p1377558p1433539.bz2.txt2024-02-04 08:21 95
[TXT]md5sums-dewiki-20240201-pages-meta-history3.xml-p1433540p1497984.7z.txt2024-02-04 19:18 94
[TXT]md5sums-dewiki-20240201-pages-meta-history3.xml-p1433540p1497984.bz2.txt2024-02-04 08:22 95
[TXT]md5sums-dewiki-20240201-pages-meta-history3.xml-p1497985p1567358.7z.txt2024-02-04 19:18 94
[TXT]md5sums-dewiki-20240201-pages-meta-history3.xml-p1497985p1567358.bz2.txt2024-02-04 08:23 95
[TXT]md5sums-dewiki-20240201-pages-meta-history3.xml-p1567359p1634925.7z.txt2024-02-04 19:18 94
[TXT]md5sums-dewiki-20240201-pages-meta-history3.xml-p1567359p1634925.bz2.txt2024-02-04 08:24 95
[TXT]md5sums-dewiki-20240201-pages-meta-history3.xml-p1634926p1694649.7z.txt2024-02-04 19:18 94
[TXT]md5sums-dewiki-20240201-pages-meta-history3.xml-p1634926p1694649.bz2.txt2024-02-04 08:25 95
[TXT]md5sums-dewiki-20240201-pages-meta-history3.xml-p1694650p1760294.7z.txt2024-02-04 19:18 94
[TXT]md5sums-dewiki-20240201-pages-meta-history3.xml-p1694650p1760294.bz2.txt2024-02-04 08:25 95
[TXT]md5sums-dewiki-20240201-pages-meta-history3.xml-p1760295p1833719.7z.txt2024-02-04 19:18 94
[TXT]md5sums-dewiki-20240201-pages-meta-history3.xml-p1760295p1833719.bz2.txt2024-02-04 08:26 95
[TXT]md5sums-dewiki-20240201-pages-meta-history3.xml-p1833720p1906958.7z.txt2024-02-04 19:18 94
[TXT]md5sums-dewiki-20240201-pages-meta-history3.xml-p1833720p1906958.bz2.txt2024-02-04 08:27 95
[TXT]md5sums-dewiki-20240201-pages-meta-history3.xml-p1906959p1987112.7z.txt2024-02-04 19:18 94
[TXT]md5sums-dewiki-20240201-pages-meta-history3.xml-p1906959p1987112.bz2.txt2024-02-04 08:27 95
[TXT]md5sums-dewiki-20240201-pages-meta-history3.xml-p1987113p2094172.7z.txt2024-02-04 19:18 94
[TXT]md5sums-dewiki-20240201-pages-meta-history3.xml-p1987113p2094172.bz2.txt2024-02-04 08:28 95
[TXT]md5sums-dewiki-20240201-pages-meta-history3.xml-p2094173p2176944.7z.txt2024-02-04 19:18 94
[TXT]md5sums-dewiki-20240201-pages-meta-history3.xml-p2094173p2176944.bz2.txt2024-02-04 08:29 95
[TXT]md5sums-dewiki-20240201-pages-meta-history3.xml-p2176945p2271875.7z.txt2024-02-04 19:18 94
[TXT]md5sums-dewiki-20240201-pages-meta-history3.xml-p2176945p2271875.bz2.txt2024-02-04 08:29 95
[TXT]md5sums-dewiki-20240201-pages-meta-history3.xml-p2271876p2373306.7z.txt2024-02-04 19:19 94
[TXT]md5sums-dewiki-20240201-pages-meta-history3.xml-p2271876p2373306.bz2.txt2024-02-04 08:30 95
[TXT]md5sums-dewiki-20240201-pages-meta-history3.xml-p2373307p2483956.7z.txt2024-02-04 19:19 94
[TXT]md5sums-dewiki-20240201-pages-meta-history3.xml-p2373307p2483956.bz2.txt2024-02-04 08:31 95
[TXT]md5sums-dewiki-20240201-pages-meta-history3.xml-p2483957p2593398.7z.txt2024-02-04 19:19 94
[TXT]md5sums-dewiki-20240201-pages-meta-history3.xml-p2483957p2593398.bz2.txt2024-02-04 08:32 95
[TXT]md5sums-dewiki-20240201-pages-meta-history3.xml-p2593399p2667694.7z.txt2024-02-04 19:19 94
[TXT]md5sums-dewiki-20240201-pages-meta-history3.xml-p2593399p2667694.bz2.txt2024-02-04 08:32 95
[TXT]md5sums-dewiki-20240201-pages-meta-history3.xml-p2667695p2747916.7z.txt2024-02-04 19:19 94
[TXT]md5sums-dewiki-20240201-pages-meta-history3.xml-p2667695p2747916.bz2.txt2024-02-04 08:34 95
[TXT]md5sums-dewiki-20240201-pages-meta-history3.xml-p2747917p2834096.7z.txt2024-02-04 19:19 94
[TXT]md5sums-dewiki-20240201-pages-meta-history3.xml-p2747917p2834096.bz2.txt2024-02-04 08:34 95
[TXT]md5sums-dewiki-20240201-pages-meta-history3.xml-p2834097p2929019.7z.txt2024-02-04 19:19 94
[TXT]md5sums-dewiki-20240201-pages-meta-history3.xml-p2834097p2929019.bz2.txt2024-02-04 08:35 95
[TXT]md5sums-dewiki-20240201-pages-meta-history3.xml-p2929020p3031797.7z.txt2024-02-04 19:19 94
[TXT]md5sums-dewiki-20240201-pages-meta-history3.xml-p2929020p3031797.bz2.txt2024-02-04 08:36 95
[TXT]md5sums-dewiki-20240201-pages-meta-history3.xml-p3031798p3093851.7z.txt2024-02-04 19:19 94
[TXT]md5sums-dewiki-20240201-pages-meta-history3.xml-p3031798p3093851.bz2.txt2024-02-04 08:37 95
[TXT]md5sums-dewiki-20240201-pages-meta-history3.xml-p3093852p3187020.7z.txt2024-02-04 19:19 94
[TXT]md5sums-dewiki-20240201-pages-meta-history3.xml-p3093852p3187020.bz2.txt2024-02-04 08:37 95
[TXT]md5sums-dewiki-20240201-pages-meta-history3.xml-p3187021p3307855.7z.txt2024-02-04 19:20 94
[TXT]md5sums-dewiki-20240201-pages-meta-history3.xml-p3187021p3307855.bz2.txt2024-02-04 08:38 95
[TXT]md5sums-dewiki-20240201-pages-meta-history3.xml-p3307856p3376257.7z.txt2024-02-04 19:20 94
[TXT]md5sums-dewiki-20240201-pages-meta-history3.xml-p3307856p3376257.bz2.txt2024-02-04 08:39 95
[TXT]md5sums-dewiki-20240201-pages-meta-history4.xml-p3376258p3471056.7z.txt2024-02-04 19:20 94
[TXT]md5sums-dewiki-20240201-pages-meta-history4.xml-p3376258p3471056.bz2.txt2024-02-04 08:39 95
[TXT]md5sums-dewiki-20240201-pages-meta-history4.xml-p3471057p3578404.7z.txt2024-02-04 19:20 94
[TXT]md5sums-dewiki-20240201-pages-meta-history4.xml-p3471057p3578404.bz2.txt2024-02-04 08:40 95
[TXT]md5sums-dewiki-20240201-pages-meta-history4.xml-p3578405p3679937.7z.txt2024-02-04 19:20 94
[TXT]md5sums-dewiki-20240201-pages-meta-history4.xml-p3578405p3679937.bz2.txt2024-02-04 08:40 95
[TXT]md5sums-dewiki-20240201-pages-meta-history4.xml-p3679938p3774014.7z.txt2024-02-04 19:20 94
[TXT]md5sums-dewiki-20240201-pages-meta-history4.xml-p3679938p3774014.bz2.txt2024-02-04 08:41 95
[TXT]md5sums-dewiki-20240201-pages-meta-history4.xml-p3774015p3869573.7z.txt2024-02-04 19:20 94
[TXT]md5sums-dewiki-20240201-pages-meta-history4.xml-p3774015p3869573.bz2.txt2024-02-04 08:42 95
[TXT]md5sums-dewiki-20240201-pages-meta-history4.xml-p3869574p3984516.7z.txt2024-02-04 19:20 94
[TXT]md5sums-dewiki-20240201-pages-meta-history4.xml-p3869574p3984516.bz2.txt2024-02-04 08:43 95
[TXT]md5sums-dewiki-20240201-pages-meta-history4.xml-p3984517p4097359.7z.txt2024-02-04 19:20 94
[TXT]md5sums-dewiki-20240201-pages-meta-history4.xml-p3984517p4097359.bz2.txt2024-02-04 08:43 95
[TXT]md5sums-dewiki-20240201-pages-meta-history4.xml-p4097360p4197019.7z.txt2024-02-04 19:20 94
[TXT]md5sums-dewiki-20240201-pages-meta-history4.xml-p4097360p4197019.bz2.txt2024-02-04 08:44 95
[TXT]md5sums-dewiki-20240201-pages-meta-history4.xml-p4197020p4297160.7z.txt2024-02-04 19:21 94
[TXT]md5sums-dewiki-20240201-pages-meta-history4.xml-p4197020p4297160.bz2.txt2024-02-04 08:45 95
[TXT]md5sums-dewiki-20240201-pages-meta-history4.xml-p4297161p4335009.7z.txt2024-02-04 19:21 94
[TXT]md5sums-dewiki-20240201-pages-meta-history4.xml-p4297161p4335009.bz2.txt2024-02-04 08:46 95
[TXT]md5sums-dewiki-20240201-pages-meta-history4.xml-p4335010p4398102.7z.txt2024-02-04 19:21 94
[TXT]md5sums-dewiki-20240201-pages-meta-history4.xml-p4335010p4398102.bz2.txt2024-02-04 08:47 95
[TXT]md5sums-dewiki-20240201-pages-meta-history4.xml-p4398103p4470219.7z.txt2024-02-04 19:21 94
[TXT]md5sums-dewiki-20240201-pages-meta-history4.xml-p4398103p4470219.bz2.txt2024-02-04 08:48 95
[TXT]md5sums-dewiki-20240201-pages-meta-history4.xml-p4470220p4561847.7z.txt2024-02-04 19:21 94
[TXT]md5sums-dewiki-20240201-pages-meta-history4.xml-p4470220p4561847.bz2.txt2024-02-04 08:48 95
[TXT]md5sums-dewiki-20240201-pages-meta-history4.xml-p4561848p4672027.7z.txt2024-02-04 19:21 94
[TXT]md5sums-dewiki-20240201-pages-meta-history4.xml-p4561848p4672027.bz2.txt2024-02-04 08:49 95
[TXT]md5sums-dewiki-20240201-pages-meta-history4.xml-p4672028p4791993.7z.txt2024-02-04 19:21 94
[TXT]md5sums-dewiki-20240201-pages-meta-history4.xml-p4672028p4791993.bz2.txt2024-02-04 08:50 95
[TXT]md5sums-dewiki-20240201-pages-meta-history4.xml-p4791994p4881896.7z.txt2024-02-04 19:21 94
[TXT]md5sums-dewiki-20240201-pages-meta-history4.xml-p4791994p4881896.bz2.txt2024-02-04 08:51 95
[TXT]md5sums-dewiki-20240201-pages-meta-history4.xml-p4881897p4989484.7z.txt2024-02-04 19:21 94
[TXT]md5sums-dewiki-20240201-pages-meta-history4.xml-p4881897p4989484.bz2.txt2024-02-04 08:52 95
[TXT]md5sums-dewiki-20240201-pages-meta-history4.xml-p4989485p5070508.7z.txt2024-02-04 19:22 94
[TXT]md5sums-dewiki-20240201-pages-meta-history4.xml-p4989485p5070508.bz2.txt2024-02-04 08:53 95
[TXT]md5sums-dewiki-20240201-pages-meta-history4.xml-p5070509p5190344.7z.txt2024-02-04 19:22 94
[TXT]md5sums-dewiki-20240201-pages-meta-history4.xml-p5070509p5190344.bz2.txt2024-02-04 08:54 95
[TXT]md5sums-dewiki-20240201-pages-meta-history4.xml-p5190345p5305108.7z.txt2024-02-04 19:22 94
[TXT]md5sums-dewiki-20240201-pages-meta-history4.xml-p5190345p5305108.bz2.txt2024-02-04 08:55 95
[TXT]md5sums-dewiki-20240201-pages-meta-history4.xml-p5305109p5394864.7z.txt2024-02-04 19:22 94
[TXT]md5sums-dewiki-20240201-pages-meta-history4.xml-p5305109p5394864.bz2.txt2024-02-04 08:56 95
[TXT]md5sums-dewiki-20240201-pages-meta-history4.xml-p5394865p5502284.7z.txt2024-02-04 19:22 94
[TXT]md5sums-dewiki-20240201-pages-meta-history4.xml-p5394865p5502284.bz2.txt2024-02-04 08:57 95
[TXT]md5sums-dewiki-20240201-pages-meta-history4.xml-p5502285p5609404.7z.txt2024-02-04 19:22 94
[TXT]md5sums-dewiki-20240201-pages-meta-history4.xml-p5502285p5609404.bz2.txt2024-02-04 08:58 95
[TXT]md5sums-dewiki-20240201-pages-meta-history4.xml-p5609405p5729958.7z.txt2024-02-04 19:22 94
[TXT]md5sums-dewiki-20240201-pages-meta-history4.xml-p5609405p5729958.bz2.txt2024-02-04 08:58 95
[TXT]md5sums-dewiki-20240201-pages-meta-history4.xml-p5729959p5856027.7z.txt2024-02-04 19:22 94
[TXT]md5sums-dewiki-20240201-pages-meta-history4.xml-p5729959p5856027.bz2.txt2024-02-04 09:00 95
[TXT]md5sums-dewiki-20240201-pages-meta-history4.xml-p5856028p5940824.7z.txt2024-02-04 19:22 94
[TXT]md5sums-dewiki-20240201-pages-meta-history4.xml-p5856028p5940824.bz2.txt2024-02-04 09:00 95
[TXT]md5sums-dewiki-20240201-pages-meta-history4.xml-p5940825p6065649.7z.txt2024-02-04 19:23 94
[TXT]md5sums-dewiki-20240201-pages-meta-history4.xml-p5940825p6065649.bz2.txt2024-02-04 09:01 95
[TXT]md5sums-dewiki-20240201-pages-meta-history4.xml-p6065650p6115464.7z.txt2024-02-04 19:23 94
[TXT]md5sums-dewiki-20240201-pages-meta-history4.xml-p6065650p6115464.bz2.txt2024-02-04 09:02 95
[TXT]md5sums-dewiki-20240201-pages-meta-history5.xml-p6115465p6232313.7z.txt2024-02-04 19:23 94
[TXT]md5sums-dewiki-20240201-pages-meta-history5.xml-p6115465p6232313.bz2.txt2024-02-04 09:03 95
[TXT]md5sums-dewiki-20240201-pages-meta-history5.xml-p6232314p6313943.7z.txt2024-02-04 19:23 94
[TXT]md5sums-dewiki-20240201-pages-meta-history5.xml-p6232314p6313943.bz2.txt2024-02-04 09:04 95
[TXT]md5sums-dewiki-20240201-pages-meta-history5.xml-p6313944p6406249.7z.txt2024-02-04 19:23 94
[TXT]md5sums-dewiki-20240201-pages-meta-history5.xml-p6313944p6406249.bz2.txt2024-02-04 09:05 95
[TXT]md5sums-dewiki-20240201-pages-meta-history5.xml-p6406250p6498560.7z.txt2024-02-04 19:23 94
[TXT]md5sums-dewiki-20240201-pages-meta-history5.xml-p6406250p6498560.bz2.txt2024-02-04 09:06 95
[TXT]md5sums-dewiki-20240201-pages-meta-history5.xml-p6498561p6529924.7z.txt2024-02-04 19:23 94
[TXT]md5sums-dewiki-20240201-pages-meta-history5.xml-p6498561p6529924.bz2.txt2024-02-04 09:08 95
[TXT]md5sums-dewiki-20240201-pages-meta-history5.xml-p6529925p6612033.7z.txt2024-02-04 19:23 94
[TXT]md5sums-dewiki-20240201-pages-meta-history5.xml-p6529925p6612033.bz2.txt2024-02-04 09:10 95
[TXT]md5sums-dewiki-20240201-pages-meta-history5.xml-p6612034p6678852.7z.txt2024-02-04 19:23 94
[TXT]md5sums-dewiki-20240201-pages-meta-history5.xml-p6612034p6678852.bz2.txt2024-02-04 09:13 95
[TXT]md5sums-dewiki-20240201-pages-meta-history5.xml-p6678853p6735278.7z.txt2024-02-04 19:24 94
[TXT]md5sums-dewiki-20240201-pages-meta-history5.xml-p6678853p6735278.bz2.txt2024-02-04 09:14 95
[TXT]md5sums-dewiki-20240201-pages-meta-history5.xml-p6735279p6837555.7z.txt2024-02-04 19:24 94
[TXT]md5sums-dewiki-20240201-pages-meta-history5.xml-p6735279p6837555.bz2.txt2024-02-04 09:15 95
[TXT]md5sums-dewiki-20240201-pages-meta-history5.xml-p6837556p6950682.7z.txt2024-02-04 19:24 94
[TXT]md5sums-dewiki-20240201-pages-meta-history5.xml-p6837556p6950682.bz2.txt2024-02-04 09:16 95
[TXT]md5sums-dewiki-20240201-pages-meta-history5.xml-p6950683p6991014.7z.txt2024-02-04 19:24 94
[TXT]md5sums-dewiki-20240201-pages-meta-history5.xml-p6950683p6991014.bz2.txt2024-02-04 09:17 95
[TXT]md5sums-dewiki-20240201-pages-meta-history5.xml-p6991015p7076403.7z.txt2024-02-04 19:24 94
[TXT]md5sums-dewiki-20240201-pages-meta-history5.xml-p6991015p7076403.bz2.txt2024-02-04 09:20 95
[TXT]md5sums-dewiki-20240201-pages-meta-history5.xml-p7076404p7165993.7z.txt2024-02-04 19:24 94
[TXT]md5sums-dewiki-20240201-pages-meta-history5.xml-p7076404p7165993.bz2.txt2024-02-04 09:21 95
[TXT]md5sums-dewiki-20240201-pages-meta-history5.xml-p7165994p7367433.7z.txt2024-02-04 19:24 94
[TXT]md5sums-dewiki-20240201-pages-meta-history5.xml-p7165994p7367433.bz2.txt2024-02-04 09:22 95
[TXT]md5sums-dewiki-20240201-pages-meta-history5.xml-p7367434p7491223.7z.txt2024-02-04 19:24 94
[TXT]md5sums-dewiki-20240201-pages-meta-history5.xml-p7367434p7491223.bz2.txt2024-02-04 09:23 95
[TXT]md5sums-dewiki-20240201-pages-meta-history5.xml-p7491224p7611161.7z.txt2024-02-04 19:25 94
[TXT]md5sums-dewiki-20240201-pages-meta-history5.xml-p7491224p7611161.bz2.txt2024-02-04 09:23 95
[TXT]md5sums-dewiki-20240201-pages-meta-history5.xml-p7611162p7717785.7z.txt2024-02-04 19:25 94
[TXT]md5sums-dewiki-20240201-pages-meta-history5.xml-p7611162p7717785.bz2.txt2024-02-04 09:24 95
[TXT]md5sums-dewiki-20240201-pages-meta-history5.xml-p7717786p7827229.7z.txt2024-02-04 19:25 94
[TXT]md5sums-dewiki-20240201-pages-meta-history5.xml-p7717786p7827229.bz2.txt2024-02-04 09:25 95
[TXT]md5sums-dewiki-20240201-pages-meta-history5.xml-p7827230p7959542.7z.txt2024-02-04 19:25 94
[TXT]md5sums-dewiki-20240201-pages-meta-history5.xml-p7827230p7959542.bz2.txt2024-02-04 09:26 95
[TXT]md5sums-dewiki-20240201-pages-meta-history5.xml-p7959543p8053311.7z.txt2024-02-04 19:25 94
[TXT]md5sums-dewiki-20240201-pages-meta-history5.xml-p7959543p8053311.bz2.txt2024-02-04 09:26 95
[TXT]md5sums-dewiki-20240201-pages-meta-history5.xml-p8053312p8136993.7z.txt2024-02-04 19:25 94
[TXT]md5sums-dewiki-20240201-pages-meta-history5.xml-p8053312p8136993.bz2.txt2024-02-04 09:27 95
[TXT]md5sums-dewiki-20240201-pages-meta-history5.xml-p8136994p8247726.7z.txt2024-02-04 19:25 94
[TXT]md5sums-dewiki-20240201-pages-meta-history5.xml-p8136994p8247726.bz2.txt2024-02-04 09:28 95
[TXT]md5sums-dewiki-20240201-pages-meta-history5.xml-p8247727p8373258.7z.txt2024-02-04 19:25 94
[TXT]md5sums-dewiki-20240201-pages-meta-history5.xml-p8247727p8373258.bz2.txt2024-02-04 09:29 95
[TXT]md5sums-dewiki-20240201-pages-meta-history5.xml-p8373259p8489384.7z.txt2024-02-04 19:25 94
[TXT]md5sums-dewiki-20240201-pages-meta-history5.xml-p8373259p8489384.bz2.txt2024-02-04 09:29 95
[TXT]md5sums-dewiki-20240201-pages-meta-history5.xml-p8489385p8609733.7z.txt2024-02-04 19:26 94
[TXT]md5sums-dewiki-20240201-pages-meta-history5.xml-p8489385p8609733.bz2.txt2024-02-04 09:30 95
[TXT]md5sums-dewiki-20240201-pages-meta-history5.xml-p8609734p8825546.7z.txt2024-02-04 19:26 94
[TXT]md5sums-dewiki-20240201-pages-meta-history5.xml-p8609734p8825546.bz2.txt2024-02-04 09:31 95
[TXT]md5sums-dewiki-20240201-pages-meta-history5.xml-p8825547p8937706.7z.txt2024-02-04 19:26 94
[TXT]md5sums-dewiki-20240201-pages-meta-history5.xml-p8825547p8937706.bz2.txt2024-02-04 09:31 95
[TXT]md5sums-dewiki-20240201-pages-meta-history5.xml-p8937707p9023998.7z.txt2024-02-04 19:26 94
[TXT]md5sums-dewiki-20240201-pages-meta-history5.xml-p8937707p9023998.bz2.txt2024-02-04 09:32 95
[TXT]md5sums-dewiki-20240201-pages-meta-history5.xml-p9023999p9082373.7z.txt2024-02-04 19:26 94
[TXT]md5sums-dewiki-20240201-pages-meta-history5.xml-p9023999p9082373.bz2.txt2024-02-04 09:36 95
[TXT]md5sums-dewiki-20240201-pages-meta-history5.xml-p9082374p9198414.7z.txt2024-02-04 19:26 94
[TXT]md5sums-dewiki-20240201-pages-meta-history5.xml-p9082374p9198414.bz2.txt2024-02-04 09:38 95
[TXT]md5sums-dewiki-20240201-pages-meta-history5.xml-p9198415p9261244.7z.txt2024-02-04 19:26 94
[TXT]md5sums-dewiki-20240201-pages-meta-history5.xml-p9198415p9261244.bz2.txt2024-02-04 09:39 95
[TXT]md5sums-dewiki-20240201-pages-meta-history6.xml-p9261245p9438967.7z.txt2024-02-04 19:26 94
[TXT]md5sums-dewiki-20240201-pages-meta-history6.xml-p9261245p9438967.bz2.txt2024-02-04 09:39 95
[TXT]md5sums-dewiki-20240201-pages-meta-history6.xml-p9438968p9569700.7z.txt2024-02-04 19:27 94
[TXT]md5sums-dewiki-20240201-pages-meta-history6.xml-p9438968p9569700.bz2.txt2024-02-04 09:40 95
[TXT]md5sums-dewiki-20240201-pages-meta-history6.xml-p9569701p9695944.7z.txt2024-02-04 19:27 94
[TXT]md5sums-dewiki-20240201-pages-meta-history6.xml-p9569701p9695944.bz2.txt2024-02-04 09:41 95
[TXT]md5sums-dewiki-20240201-pages-meta-history6.xml-p9695945p9791990.7z.txt2024-02-04 19:27 94
[TXT]md5sums-dewiki-20240201-pages-meta-history6.xml-p9695945p9791990.bz2.txt2024-02-04 09:42 95
[TXT]md5sums-dewiki-20240201-pages-meta-history6.xml-p9791991p9940836.7z.txt2024-02-04 19:27 94
[TXT]md5sums-dewiki-20240201-pages-meta-history6.xml-p9791991p9940836.bz2.txt2024-02-04 09:43 95
[TXT]md5sums-dewiki-20240201-pages-meta-history6.xml-p9940837p9952139.7z.txt2024-02-04 19:27 94
[TXT]md5sums-dewiki-20240201-pages-meta-history6.xml-p9940837p9952139.bz2.txt2024-02-04 09:44 95
[TXT]md5sums-dewiki-20240201-pages-meta-history6.xml-p9952140p10042862.7z.txt2024-02-04 19:27 95
[TXT]md5sums-dewiki-20240201-pages-meta-history6.xml-p9952140p10042862.bz2.txt2024-02-04 09:45 96
[TXT]md5sums-dewiki-20240201-pages-meta-history6.xml-p10042863p10103028.7z.txt2024-02-04 19:27 96
[TXT]md5sums-dewiki-20240201-pages-meta-history6.xml-p10042863p10103028.bz2.txt2024-02-04 09:45 97
[TXT]md5sums-dewiki-20240201-pages-meta-history6.xml-p10103029p10247541.7z.txt2024-02-04 19:28 96
[TXT]md5sums-dewiki-20240201-pages-meta-history6.xml-p10103029p10247541.bz2.txt2024-02-04 09:46 97
[TXT]md5sums-dewiki-20240201-pages-meta-history6.xml-p10247542p10256540.7z.txt2024-02-04 19:28 96
[TXT]md5sums-dewiki-20240201-pages-meta-history6.xml-p10247542p10256540.bz2.txt2024-02-04 09:47 97
[TXT]md5sums-dewiki-20240201-pages-meta-history6.xml-p10256541p10368950.7z.txt2024-02-04 19:28 96
[TXT]md5sums-dewiki-20240201-pages-meta-history6.xml-p10256541p10368950.bz2.txt2024-02-04 09:48 97
[TXT]md5sums-dewiki-20240201-pages-meta-history6.xml-p10368951p10521940.7z.txt2024-02-04 19:28 96
[TXT]md5sums-dewiki-20240201-pages-meta-history6.xml-p10368951p10521940.bz2.txt2024-02-04 09:49 97
[TXT]md5sums-dewiki-20240201-pages-meta-history6.xml-p10521941p10676300.7z.txt2024-02-04 19:28 96
[TXT]md5sums-dewiki-20240201-pages-meta-history6.xml-p10521941p10676300.bz2.txt2024-02-04 09:50 97
[TXT]md5sums-dewiki-20240201-pages-meta-history6.xml-p10676301p10803072.7z.txt2024-02-04 19:28 96
[TXT]md5sums-dewiki-20240201-pages-meta-history6.xml-p10676301p10803072.bz2.txt2024-02-04 09:51 97
[TXT]md5sums-dewiki-20240201-pages-meta-history6.xml-p10803073p10978490.7z.txt2024-02-04 19:28 96
[TXT]md5sums-dewiki-20240201-pages-meta-history6.xml-p10803073p10978490.bz2.txt2024-02-04 09:51 97
[TXT]md5sums-dewiki-20240201-pages-meta-history6.xml-p10978491p11131901.7z.txt2024-02-04 19:28 96
[TXT]md5sums-dewiki-20240201-pages-meta-history6.xml-p10978491p11131901.bz2.txt2024-02-04 09:52 97
[TXT]md5sums-dewiki-20240201-pages-meta-history6.xml-p11131902p11230078.7z.txt2024-02-04 19:29 96
[TXT]md5sums-dewiki-20240201-pages-meta-history6.xml-p11131902p11230078.bz2.txt2024-02-04 09:53 97
[TXT]md5sums-dewiki-20240201-pages-meta-history6.xml-p11230079p11275748.7z.txt2024-02-04 19:29 96
[TXT]md5sums-dewiki-20240201-pages-meta-history6.xml-p11230079p11275748.bz2.txt2024-02-04 09:55 97
[TXT]md5sums-dewiki-20240201-pages-meta-history6.xml-p11275749p11441233.7z.txt2024-02-04 19:29 96
[TXT]md5sums-dewiki-20240201-pages-meta-history6.xml-p11275749p11441233.bz2.txt2024-02-04 09:56 97
[TXT]md5sums-dewiki-20240201-pages-meta-history6.xml-p11441234p11556277.7z.txt2024-02-04 19:29 96
[TXT]md5sums-dewiki-20240201-pages-meta-history6.xml-p11441234p11556277.bz2.txt2024-02-04 09:57 97
[TXT]md5sums-dewiki-20240201-pages-meta-history6.xml-p11556278p11729040.7z.txt2024-02-04 19:29 96
[TXT]md5sums-dewiki-20240201-pages-meta-history6.xml-p11556278p11729040.bz2.txt2024-02-04 09:58 97
[TXT]md5sums-dewiki-20240201-pages-meta-history6.xml-p11729041p11874568.7z.txt2024-02-04 19:29 96
[TXT]md5sums-dewiki-20240201-pages-meta-history6.xml-p11729041p11874568.bz2.txt2024-02-04 09:59 97
[TXT]md5sums-dewiki-20240201-pages-meta-history6.xml-p11874569p12070003.7z.txt2024-02-04 19:29 96
[TXT]md5sums-dewiki-20240201-pages-meta-history6.xml-p11874569p12070003.bz2.txt2024-02-04 10:00 97
[TXT]md5sums-dewiki-20240201-pages-meta-history6.xml-p12070004p12258973.7z.txt2024-02-04 19:29 96
[TXT]md5sums-dewiki-20240201-pages-meta-history6.xml-p12070004p12258973.bz2.txt2024-02-04 10:01 97
[TXT]md5sums-dewiki-20240201-pages-meta-history6.xml-p12258974p12464488.7z.txt2024-02-04 19:30 96
[TXT]md5sums-dewiki-20240201-pages-meta-history6.xml-p12258974p12464488.bz2.txt2024-02-04 10:01 97
[TXT]md5sums-dewiki-20240201-pages-meta-history6.xml-p12464489p12675306.7z.txt2024-02-04 19:30 96
[TXT]md5sums-dewiki-20240201-pages-meta-history6.xml-p12464489p12675306.bz2.txt2024-02-04 10:02 97
[TXT]md5sums-dewiki-20240201-pages-meta-history6.xml-p12675307p12890514.7z.txt2024-02-04 19:30 96
[TXT]md5sums-dewiki-20240201-pages-meta-history6.xml-p12675307p12890514.bz2.txt2024-02-04 10:03 97
[TXT]md5sums-dewiki-20240201-pages-meta-history6.xml-p12890515p12978624.7z.txt2024-02-04 19:30 96
[TXT]md5sums-dewiki-20240201-pages-meta-history6.xml-p12890515p12978624.bz2.txt2024-02-04 10:03 97
[TXT]md5sums-dewiki-20240201-protected_titles.sql.gz.txt2024-02-01 16:06 74
[TXT]md5sums-dewiki-20240201-redirect.sql.gz.txt2024-02-01 16:07 66
[TXT]md5sums-dewiki-20240201-site_stats.sql.gz.txt2024-02-01 15:46 68
[TXT]md5sums-dewiki-20240201-siteinfo-namespaces.json.gz.txt2024-02-03 01:09 78
[TXT]md5sums-dewiki-20240201-siteinfo2-namespacesv2.json.gz.txt2024-02-03 01:10 81
[TXT]md5sums-dewiki-20240201-sites.sql.gz.txt2024-02-01 16:25 63
[TXT]md5sums-dewiki-20240201-stub-articles.xml.gz.txt2024-02-01 15:43 71
[TXT]md5sums-dewiki-20240201-stub-articles1.xml.gz.txt2024-02-01 15:27 72
[TXT]md5sums-dewiki-20240201-stub-articles2.xml.gz.txt2024-02-01 15:27 72
[TXT]md5sums-dewiki-20240201-stub-articles3.xml.gz.txt2024-02-01 15:27 72
[TXT]md5sums-dewiki-20240201-stub-articles4.xml.gz.txt2024-02-01 15:27 72
[TXT]md5sums-dewiki-20240201-stub-articles5.xml.gz.txt2024-02-01 15:27 72
[TXT]md5sums-dewiki-20240201-stub-articles6.xml.gz.txt2024-02-01 15:28 72
[TXT]md5sums-dewiki-20240201-stub-meta-current.xml.gz.txt2024-02-01 15:43 75
[TXT]md5sums-dewiki-20240201-stub-meta-current1.xml.gz.txt2024-02-01 15:27 76
[TXT]md5sums-dewiki-20240201-stub-meta-current2.xml.gz.txt2024-02-01 15:27 76
[TXT]md5sums-dewiki-20240201-stub-meta-current3.xml.gz.txt2024-02-01 15:27 76
[TXT]md5sums-dewiki-20240201-stub-meta-current4.xml.gz.txt2024-02-01 15:27 76
[TXT]md5sums-dewiki-20240201-stub-meta-current5.xml.gz.txt2024-02-01 15:27 76
[TXT]md5sums-dewiki-20240201-stub-meta-current6.xml.gz.txt2024-02-01 15:27 76
[TXT]md5sums-dewiki-20240201-stub-meta-history.xml.gz.txt2024-02-01 15:40 75
[TXT]md5sums-dewiki-20240201-stub-meta-history1.xml.gz.txt2024-02-01 15:21 76
[TXT]md5sums-dewiki-20240201-stub-meta-history2.xml.gz.txt2024-02-01 15:22 76
[TXT]md5sums-dewiki-20240201-stub-meta-history3.xml.gz.txt2024-02-01 15:24 76
[TXT]md5sums-dewiki-20240201-stub-meta-history4.xml.gz.txt2024-02-01 15:24 76
[TXT]md5sums-dewiki-20240201-stub-meta-history5.xml.gz.txt2024-02-01 15:25 76
[TXT]md5sums-dewiki-20240201-stub-meta-history6.xml.gz.txt2024-02-01 15:27 76
[TXT]md5sums-dewiki-20240201-templatelinks.sql.gz.txt2024-02-01 15:58 71
[TXT]md5sums-dewiki-20240201-user_former_groups.sql.gz.txt2024-02-01 16:04 76
[TXT]md5sums-dewiki-20240201-user_groups.sql.gz.txt2024-02-01 16:03 69
[TXT]md5sums-dewiki-20240201-wbc_entity_usage.sql.gz.txt2024-02-01 16:26 74
[   ]pagerangeinfo.json2024-02-03 05:31 5.4K
[   ]report.json2024-02-04 19:30 76K
[TXT]sha1sums-dewiki-20240201-abstract.xml.gz.txt2024-02-03 05:02 74
[TXT]sha1sums-dewiki-20240201-abstract1.xml.gz.txt2024-02-03 05:02 75
[TXT]sha1sums-dewiki-20240201-abstract2.xml.gz.txt2024-02-03 05:02 75
[TXT]sha1sums-dewiki-20240201-abstract3.xml.gz.txt2024-02-03 05:02 75
[TXT]sha1sums-dewiki-20240201-abstract4.xml.gz.txt2024-02-03 05:02 75
[TXT]sha1sums-dewiki-20240201-abstract5.xml.gz.txt2024-02-03 05:02 75
[TXT]sha1sums-dewiki-20240201-abstract6.xml.gz.txt2024-02-03 05:02 75
[TXT]sha1sums-dewiki-20240201-all-titles-in-ns0.gz.txt2024-02-03 01:10 79
[TXT]sha1sums-dewiki-20240201-all-titles.gz.txt2024-02-03 01:10 72
[TXT]sha1sums-dewiki-20240201-babel.sql.gz.txt2024-02-01 16:26 71
[TXT]sha1sums-dewiki-20240201-category.sql.gz.txt2024-02-01 16:04 74
[TXT]sha1sums-dewiki-20240201-categorylinks.sql.gz.txt2024-02-01 15:55 79
[TXT]sha1sums-dewiki-20240201-change_tag.sql.gz.txt2024-02-01 16:09 76
[TXT]sha1sums-dewiki-20240201-change_tag_def.sql.gz.txt2024-02-01 16:09 80
[TXT]sha1sums-dewiki-20240201-externallinks.sql.gz.txt2024-02-01 16:01 79
[TXT]sha1sums-dewiki-20240201-flaggedpage_config.sql.gz.txt2024-02-01 16:16 84
[TXT]sha1sums-dewiki-20240201-flaggedpage_pending.sql.gz.txt2024-02-01 16:16 85
[TXT]sha1sums-dewiki-20240201-flaggedpages.sql.gz.txt2024-02-01 16:10 78
[TXT]sha1sums-dewiki-20240201-flaggedrevs.sql.gz.txt2024-02-01 16:16 77
[TXT]sha1sums-dewiki-20240201-flaggedrevs_promote.sql.gz.txt2024-02-01 16:16 85
[TXT]sha1sums-dewiki-20240201-flaggedrevs_statistics.sql.gz.txt2024-02-01 16:17 88
[TXT]sha1sums-dewiki-20240201-flaggedrevs_tracking.sql.gz.txt2024-02-01 16:17 86
[TXT]sha1sums-dewiki-20240201-flaggedtemplates.sql.gz.txt2024-02-01 16:25 82
[TXT]sha1sums-dewiki-20240201-geo_tags.sql.gz.txt2024-02-01 16:07 74
[TXT]sha1sums-dewiki-20240201-image.sql.gz.txt2024-02-01 15:46 71
[TXT]sha1sums-dewiki-20240201-imagelinks.sql.gz.txt2024-02-01 15:56 76
[TXT]sha1sums-dewiki-20240201-iwlinks.sql.gz.txt2024-02-01 16:07 73
[TXT]sha1sums-dewiki-20240201-langlinks.sql.gz.txt2024-02-01 16:03 75
[TXT]sha1sums-dewiki-20240201-linktarget.sql.gz.txt2024-02-01 15:59 76
[TXT]sha1sums-dewiki-20240201-page.sql.gz.txt2024-02-01 16:05 70
[TXT]sha1sums-dewiki-20240201-page_props.sql.gz.txt2024-02-01 16:06 76
[TXT]sha1sums-dewiki-20240201-page_restrictions.sql.gz.txt2024-02-01 16:05 83
[TXT]sha1sums-dewiki-20240201-pagelinks.sql.gz.txt2024-02-01 15:53 75
[TXT]sha1sums-dewiki-20240201-pages-articles-multistream-index.txt.bz2.txt2024-02-02 03:58 99
[TXT]sha1sums-dewiki-20240201-pages-articles-multistream-index1.txt-p1p297012.bz2.txt2024-02-02 03:44 110
[TXT]sha1sums-dewiki-20240201-pages-articles-multistream-index2.txt-p297013p1262093.bz2.txt2024-02-02 03:44 116
[TXT]sha1sums-dewiki-20240201-pages-articles-multistream-index3.txt-p1262094p2762093.bz2.txt2024-02-02 03:44 117
[TXT]sha1sums-dewiki-20240201-pages-articles-multistream-index3.txt-p2762094p3376257.bz2.txt2024-02-02 03:44 117
[TXT]sha1sums-dewiki-20240201-pages-articles-multistream-index4.txt-p3376258p4876257.bz2.txt2024-02-02 03:45 117
[TXT]sha1sums-dewiki-20240201-pages-articles-multistream-index4.txt-p4876258p6115464.bz2.txt2024-02-02 03:45 117
[TXT]sha1sums-dewiki-20240201-pages-articles-multistream-index5.txt-p6115465p7615464.bz2.txt2024-02-02 03:45 117
[TXT]sha1sums-dewiki-20240201-pages-articles-multistream-index5.txt-p7615465p9115464.bz2.txt2024-02-02 03:45 117
[TXT]sha1sums-dewiki-20240201-pages-articles-multistream-index5.txt-p9115465p9261244.bz2.txt2024-02-02 03:46 117
[TXT]sha1sums-dewiki-20240201-pages-articles-multistream-index6.txt-p9261245p10761244.bz2.txt2024-02-02 03:46 118
[TXT]sha1sums-dewiki-20240201-pages-articles-multistream-index6.txt-p10761245p12261244.bz2.txt2024-02-02 03:46 119
[TXT]sha1sums-dewiki-20240201-pages-articles-multistream-index6.txt-p12261245p12978619.bz2.txt2024-02-02 03:46 119
[TXT]sha1sums-dewiki-20240201-pages-articles-multistream.xml.bz2.txt2024-02-02 03:58 93
[TXT]sha1sums-dewiki-20240201-pages-articles-multistream1.xml-p1p297012.bz2.txt2024-02-02 03:44 104
[TXT]sha1sums-dewiki-20240201-pages-articles-multistream2.xml-p297013p1262093.bz2.txt2024-02-02 03:44 110
[TXT]sha1sums-dewiki-20240201-pages-articles-multistream3.xml-p1262094p2762093.bz2.txt2024-02-02 03:44 111
[TXT]sha1sums-dewiki-20240201-pages-articles-multistream3.xml-p2762094p3376257.bz2.txt2024-02-02 03:44 111
[TXT]sha1sums-dewiki-20240201-pages-articles-multistream4.xml-p3376258p4876257.bz2.txt2024-02-02 03:45 111
[TXT]sha1sums-dewiki-20240201-pages-articles-multistream4.xml-p4876258p6115464.bz2.txt2024-02-02 03:45 111
[TXT]sha1sums-dewiki-20240201-pages-articles-multistream5.xml-p6115465p7615464.bz2.txt2024-02-02 03:45 111
[TXT]sha1sums-dewiki-20240201-pages-articles-multistream5.xml-p7615465p9115464.bz2.txt2024-02-02 03:45 111
[TXT]sha1sums-dewiki-20240201-pages-articles-multistream5.xml-p9115465p9261244.bz2.txt2024-02-02 03:45 111
[TXT]sha1sums-dewiki-20240201-pages-articles-multistream6.xml-p9261245p10761244.bz2.txt2024-02-02 03:46 112
[TXT]sha1sums-dewiki-20240201-pages-articles-multistream6.xml-p10761245p12261244.bz2.txt2024-02-02 03:46 113
[TXT]sha1sums-dewiki-20240201-pages-articles-multistream6.xml-p12261245p12978619.bz2.txt2024-02-02 03:46 113
[TXT]sha1sums-dewiki-20240201-pages-articles.xml.bz2.txt2024-02-01 19:18 81
[TXT]sha1sums-dewiki-20240201-pages-articles1.xml-p1p297012.bz2.txt2024-02-01 18:35 92
[TXT]sha1sums-dewiki-20240201-pages-articles2.xml-p297013p1262093.bz2.txt2024-02-01 18:35 98
[TXT]sha1sums-dewiki-20240201-pages-articles3.xml-p1262094p2762093.bz2.txt2024-02-01 18:36 99
[TXT]sha1sums-dewiki-20240201-pages-articles3.xml-p2762094p3376257.bz2.txt2024-02-01 18:36 99
[TXT]sha1sums-dewiki-20240201-pages-articles4.xml-p3376258p4876257.bz2.txt2024-02-01 18:36 99
[TXT]sha1sums-dewiki-20240201-pages-articles4.xml-p4876258p6115464.bz2.txt2024-02-01 18:36 99
[TXT]sha1sums-dewiki-20240201-pages-articles5.xml-p6115465p7615464.bz2.txt2024-02-01 18:36 99
[TXT]sha1sums-dewiki-20240201-pages-articles5.xml-p7615465p9115464.bz2.txt2024-02-01 18:37 99
[TXT]sha1sums-dewiki-20240201-pages-articles5.xml-p9115465p9261244.bz2.txt2024-02-01 18:37 99
[TXT]sha1sums-dewiki-20240201-pages-articles6.xml-p9261245p10761244.bz2.txt2024-02-01 18:37 100
[TXT]sha1sums-dewiki-20240201-pages-articles6.xml-p10761245p12261244.bz2.txt2024-02-01 18:38 101
[TXT]sha1sums-dewiki-20240201-pages-articles6.xml-p12261245p12978619.bz2.txt2024-02-01 18:38 101
[TXT]sha1sums-dewiki-20240201-pages-logging.xml.gz.txt2024-02-03 05:15 79
[TXT]sha1sums-dewiki-20240201-pages-logging1.xml.gz.txt2024-02-03 05:13 80
[TXT]sha1sums-dewiki-20240201-pages-logging2.xml.gz.txt2024-02-03 05:13 80
[TXT]sha1sums-dewiki-20240201-pages-logging3.xml.gz.txt2024-02-03 05:13 80
[TXT]sha1sums-dewiki-20240201-pages-logging4.xml.gz.txt2024-02-03 05:14 80
[TXT]sha1sums-dewiki-20240201-pages-logging5.xml.gz.txt2024-02-03 05:14 80
[TXT]sha1sums-dewiki-20240201-pages-logging6.xml.gz.txt2024-02-03 05:14 80
[TXT]sha1sums-dewiki-20240201-pages-meta-current.xml.bz2.txt2024-02-02 16:24 85
[TXT]sha1sums-dewiki-20240201-pages-meta-current1.xml-p1p297012.bz2.txt2024-02-02 15:36 96
[TXT]sha1sums-dewiki-20240201-pages-meta-current2.xml-p297013p1262093.bz2.txt2024-02-02 15:37 102
[TXT]sha1sums-dewiki-20240201-pages-meta-current3.xml-p1262094p2762093.bz2.txt2024-02-02 15:37 103
[TXT]sha1sums-dewiki-20240201-pages-meta-current3.xml-p2762094p3376257.bz2.txt2024-02-02 15:37 103
[TXT]sha1sums-dewiki-20240201-pages-meta-current4.xml-p3376258p4876257.bz2.txt2024-02-02 15:37 103
[TXT]sha1sums-dewiki-20240201-pages-meta-current4.xml-p4876258p6115464.bz2.txt2024-02-02 15:38 103
[TXT]sha1sums-dewiki-20240201-pages-meta-current5.xml-p6115465p7615464.bz2.txt2024-02-02 15:38 103
[TXT]sha1sums-dewiki-20240201-pages-meta-current5.xml-p7615465p9115464.bz2.txt2024-02-02 15:39 103
[TXT]sha1sums-dewiki-20240201-pages-meta-current5.xml-p9115465p9261244.bz2.txt2024-02-02 15:39 103
[TXT]sha1sums-dewiki-20240201-pages-meta-current6.xml-p9261245p10761244.bz2.txt2024-02-02 15:40 104
[TXT]sha1sums-dewiki-20240201-pages-meta-current6.xml-p10761245p12261244.bz2.txt2024-02-02 15:41 105
[TXT]sha1sums-dewiki-20240201-pages-meta-current6.xml-p12261245p12978624.bz2.txt2024-02-02 15:41 105
[TXT]sha1sums-dewiki-20240201-pages-meta-history1.xml-p1p1313.7z.txt2024-02-04 19:13 93
[TXT]sha1sums-dewiki-20240201-pages-meta-history1.xml-p1p1313.bz2.txt2024-02-04 07:48 94
[TXT]sha1sums-dewiki-20240201-pages-meta-history1.xml-p1314p2909.7z.txt2024-02-04 19:13 96
[TXT]sha1sums-dewiki-20240201-pages-meta-history1.xml-p1314p2909.bz2.txt2024-02-04 07:49 97
[TXT]sha1sums-dewiki-20240201-pages-meta-history1.xml-p2910p4622.7z.txt2024-02-04 19:13 96
[TXT]sha1sums-dewiki-20240201-pages-meta-history1.xml-p2910p4622.bz2.txt2024-02-04 07:50 97
[TXT]sha1sums-dewiki-20240201-pages-meta-history1.xml-p4623p6017.7z.txt2024-02-04 19:13 96
[TXT]sha1sums-dewiki-20240201-pages-meta-history1.xml-p4623p6017.bz2.txt2024-02-04 07:50 97
[TXT]sha1sums-dewiki-20240201-pages-meta-history1.xml-p6018p8424.7z.txt2024-02-04 19:13 96
[TXT]sha1sums-dewiki-20240201-pages-meta-history1.xml-p6018p8424.bz2.txt2024-02-04 07:51 97
[TXT]sha1sums-dewiki-20240201-pages-meta-history1.xml-p8425p10469.7z.txt2024-02-04 19:13 97
[TXT]sha1sums-dewiki-20240201-pages-meta-history1.xml-p8425p10469.bz2.txt2024-02-04 07:52 98
[TXT]sha1sums-dewiki-20240201-pages-meta-history1.xml-p10470p12985.7z.txt2024-02-04 19:13 98
[TXT]sha1sums-dewiki-20240201-pages-meta-history1.xml-p10470p12985.bz2.txt2024-02-04 07:52 99
[TXT]sha1sums-dewiki-20240201-pages-meta-history1.xml-p12986p15865.7z.txt2024-02-04 19:13 98
[TXT]sha1sums-dewiki-20240201-pages-meta-history1.xml-p12986p15865.bz2.txt2024-02-04 07:53 99
[TXT]sha1sums-dewiki-20240201-pages-meta-history1.xml-p15866p18627.7z.txt2024-02-04 19:13 98
[TXT]sha1sums-dewiki-20240201-pages-meta-history1.xml-p15866p18627.bz2.txt2024-02-04 07:53 99
[TXT]sha1sums-dewiki-20240201-pages-meta-history1.xml-p18628p22849.7z.txt2024-02-04 19:13 98
[TXT]sha1sums-dewiki-20240201-pages-meta-history1.xml-p18628p22849.bz2.txt2024-02-04 07:54 99
[TXT]sha1sums-dewiki-20240201-pages-meta-history1.xml-p22850p28995.7z.txt2024-02-04 19:14 98
[TXT]sha1sums-dewiki-20240201-pages-meta-history1.xml-p22850p28995.bz2.txt2024-02-04 07:55 99
[TXT]sha1sums-dewiki-20240201-pages-meta-history1.xml-p28996p33481.7z.txt2024-02-04 19:14 98
[TXT]sha1sums-dewiki-20240201-pages-meta-history1.xml-p28996p33481.bz2.txt2024-02-04 07:56 99
[TXT]sha1sums-dewiki-20240201-pages-meta-history1.xml-p33482p40781.7z.txt2024-02-04 19:14 98
[TXT]sha1sums-dewiki-20240201-pages-meta-history1.xml-p33482p40781.bz2.txt2024-02-04 07:56 99
[TXT]sha1sums-dewiki-20240201-pages-meta-history1.xml-p40782p47908.7z.txt2024-02-04 19:14 98
[TXT]sha1sums-dewiki-20240201-pages-meta-history1.xml-p40782p47908.bz2.txt2024-02-04 07:57 99
[TXT]sha1sums-dewiki-20240201-pages-meta-history1.xml-p47909p54358.7z.txt2024-02-04 19:14 98
[TXT]sha1sums-dewiki-20240201-pages-meta-history1.xml-p47909p54358.bz2.txt2024-02-04 07:57 99
[TXT]sha1sums-dewiki-20240201-pages-meta-history1.xml-p54359p62165.7z.txt2024-02-04 19:14 98
[TXT]sha1sums-dewiki-20240201-pages-meta-history1.xml-p54359p62165.bz2.txt2024-02-04 07:58 99
[TXT]sha1sums-dewiki-20240201-pages-meta-history1.xml-p62166p72952.7z.txt2024-02-04 19:14 98
[TXT]sha1sums-dewiki-20240201-pages-meta-history1.xml-p62166p72952.bz2.txt2024-02-04 07:59 99
[TXT]sha1sums-dewiki-20240201-pages-meta-history1.xml-p72953p82659.7z.txt2024-02-04 19:14 98
[TXT]sha1sums-dewiki-20240201-pages-meta-history1.xml-p72953p82659.bz2.txt2024-02-04 07:59 99
[TXT]sha1sums-dewiki-20240201-pages-meta-history1.xml-p82660p94925.7z.txt2024-02-04 19:14 98
[TXT]sha1sums-dewiki-20240201-pages-meta-history1.xml-p82660p94925.bz2.txt2024-02-04 08:00 99
[TXT]sha1sums-dewiki-20240201-pages-meta-history1.xml-p94926p107634.7z.txt2024-02-04 19:14 99
[TXT]sha1sums-dewiki-20240201-pages-meta-history1.xml-p94926p107634.bz2.txt2024-02-04 08:00 100
[TXT]sha1sums-dewiki-20240201-pages-meta-history1.xml-p107635p121787.7z.txt2024-02-04 19:14 100
[TXT]sha1sums-dewiki-20240201-pages-meta-history1.xml-p107635p121787.bz2.txt2024-02-04 08:01 101
[TXT]sha1sums-dewiki-20240201-pages-meta-history1.xml-p121788p135576.7z.txt2024-02-04 19:14 100
[TXT]sha1sums-dewiki-20240201-pages-meta-history1.xml-p121788p135576.bz2.txt2024-02-04 08:01 101
[TXT]sha1sums-dewiki-20240201-pages-meta-history1.xml-p135577p150651.7z.txt2024-02-04 19:14 100
[TXT]sha1sums-dewiki-20240201-pages-meta-history1.xml-p135577p150651.bz2.txt2024-02-04 08:02 101
[TXT]sha1sums-dewiki-20240201-pages-meta-history1.xml-p150652p166640.7z.txt2024-02-04 19:15 100
[TXT]sha1sums-dewiki-20240201-pages-meta-history1.xml-p150652p166640.bz2.txt2024-02-04 08:02 101
[TXT]sha1sums-dewiki-20240201-pages-meta-history1.xml-p166641p183304.7z.txt2024-02-04 19:15 100
[TXT]sha1sums-dewiki-20240201-pages-meta-history1.xml-p166641p183304.bz2.txt2024-02-04 08:03 101
[TXT]sha1sums-dewiki-20240201-pages-meta-history1.xml-p183305p202354.7z.txt2024-02-04 19:15 100
[TXT]sha1sums-dewiki-20240201-pages-meta-history1.xml-p183305p202354.bz2.txt2024-02-04 08:03 101
[TXT]sha1sums-dewiki-20240201-pages-meta-history1.xml-p202355p222260.7z.txt2024-02-04 19:15 100
[TXT]sha1sums-dewiki-20240201-pages-meta-history1.xml-p202355p222260.bz2.txt2024-02-04 08:04 101
[TXT]sha1sums-dewiki-20240201-pages-meta-history1.xml-p222261p244791.7z.txt2024-02-04 19:15 100
[TXT]sha1sums-dewiki-20240201-pages-meta-history1.xml-p222261p244791.bz2.txt2024-02-04 08:04 101
[TXT]sha1sums-dewiki-20240201-pages-meta-history1.xml-p244792p266407.7z.txt2024-02-04 19:15 100
[TXT]sha1sums-dewiki-20240201-pages-meta-history1.xml-p244792p266407.bz2.txt2024-02-04 08:05 101
[TXT]sha1sums-dewiki-20240201-pages-meta-history1.xml-p266408p288842.7z.txt2024-02-04 19:15 100
[TXT]sha1sums-dewiki-20240201-pages-meta-history1.xml-p266408p288842.bz2.txt2024-02-04 08:05 101
[TXT]sha1sums-dewiki-20240201-pages-meta-history1.xml-p288843p297012.7z.txt2024-02-04 19:15 100
[TXT]sha1sums-dewiki-20240201-pages-meta-history1.xml-p288843p297012.bz2.txt2024-02-04 08:06 101
[TXT]sha1sums-dewiki-20240201-pages-meta-history2.xml-p297013p321961.7z.txt2024-02-04 19:15 100
[TXT]sha1sums-dewiki-20240201-pages-meta-history2.xml-p297013p321961.bz2.txt2024-02-04 08:06 101
[TXT]sha1sums-dewiki-20240201-pages-meta-history2.xml-p321962p347154.7z.txt2024-02-04 19:15 100
[TXT]sha1sums-dewiki-20240201-pages-meta-history2.xml-p321962p347154.bz2.txt2024-02-04 08:07 101
[TXT]sha1sums-dewiki-20240201-pages-meta-history2.xml-p347155p375313.7z.txt2024-02-04 19:15 100
[TXT]sha1sums-dewiki-20240201-pages-meta-history2.xml-p347155p375313.bz2.txt2024-02-04 08:07 101
[TXT]sha1sums-dewiki-20240201-pages-meta-history2.xml-p375314p403880.7z.txt2024-02-04 19:15 100
[TXT]sha1sums-dewiki-20240201-pages-meta-history2.xml-p375314p403880.bz2.txt2024-02-04 08:08 101
[TXT]sha1sums-dewiki-20240201-pages-meta-history2.xml-p403881p436201.7z.txt2024-02-04 19:15 100
[TXT]sha1sums-dewiki-20240201-pages-meta-history2.xml-p403881p436201.bz2.txt2024-02-04 08:08 101
[TXT]sha1sums-dewiki-20240201-pages-meta-history2.xml-p436202p463566.7z.txt2024-02-04 19:16 100
[TXT]sha1sums-dewiki-20240201-pages-meta-history2.xml-p436202p463566.bz2.txt2024-02-04 08:09 101
[TXT]sha1sums-dewiki-20240201-pages-meta-history2.xml-p463567p491678.7z.txt2024-02-04 19:16 100
[TXT]sha1sums-dewiki-20240201-pages-meta-history2.xml-p463567p491678.bz2.txt2024-02-04 08:09 101
[TXT]sha1sums-dewiki-20240201-pages-meta-history2.xml-p491679p525968.7z.txt2024-02-04 19:16 100
[TXT]sha1sums-dewiki-20240201-pages-meta-history2.xml-p491679p525968.bz2.txt2024-02-04 08:09 101
[TXT]sha1sums-dewiki-20240201-pages-meta-history2.xml-p525969p563538.7z.txt2024-02-04 19:16 100
[TXT]sha1sums-dewiki-20240201-pages-meta-history2.xml-p525969p563538.bz2.txt2024-02-04 08:10 101
[TXT]sha1sums-dewiki-20240201-pages-meta-history2.xml-p563539p601317.7z.txt2024-02-04 19:16 100
[TXT]sha1sums-dewiki-20240201-pages-meta-history2.xml-p563539p601317.bz2.txt2024-02-04 08:10 101
[TXT]sha1sums-dewiki-20240201-pages-meta-history2.xml-p601318p637884.7z.txt2024-02-04 19:16 100
[TXT]sha1sums-dewiki-20240201-pages-meta-history2.xml-p601318p637884.bz2.txt2024-02-04 08:11 101
[TXT]sha1sums-dewiki-20240201-pages-meta-history2.xml-p637885p676024.7z.txt2024-02-04 19:16 100
[TXT]sha1sums-dewiki-20240201-pages-meta-history2.xml-p637885p676024.bz2.txt2024-02-04 08:11 101
[TXT]sha1sums-dewiki-20240201-pages-meta-history2.xml-p676025p707926.7z.txt2024-02-04 19:16 100
[TXT]sha1sums-dewiki-20240201-pages-meta-history2.xml-p676025p707926.bz2.txt2024-02-04 08:12 101
[TXT]sha1sums-dewiki-20240201-pages-meta-history2.xml-p707927p746255.7z.txt2024-02-04 19:16 100
[TXT]sha1sums-dewiki-20240201-pages-meta-history2.xml-p707927p746255.bz2.txt2024-02-04 08:12 101
[TXT]sha1sums-dewiki-20240201-pages-meta-history2.xml-p746256p787364.7z.txt2024-02-04 19:16 100
[TXT]sha1sums-dewiki-20240201-pages-meta-history2.xml-p746256p787364.bz2.txt2024-02-04 08:13 101
[TXT]sha1sums-dewiki-20240201-pages-meta-history2.xml-p787365p826294.7z.txt2024-02-04 19:16 100
[TXT]sha1sums-dewiki-20240201-pages-meta-history2.xml-p787365p826294.bz2.txt2024-02-04 08:14 101
[TXT]sha1sums-dewiki-20240201-pages-meta-history2.xml-p826295p864694.7z.txt2024-02-04 19:16 100
[TXT]sha1sums-dewiki-20240201-pages-meta-history2.xml-p826295p864694.bz2.txt2024-02-04 08:14 101
[TXT]sha1sums-dewiki-20240201-pages-meta-history2.xml-p864695p909508.7z.txt2024-02-04 19:17 100
[TXT]sha1sums-dewiki-20240201-pages-meta-history2.xml-p864695p909508.bz2.txt2024-02-04 08:15 101
[TXT]sha1sums-dewiki-20240201-pages-meta-history2.xml-p909509p958774.7z.txt2024-02-04 19:17 100
[TXT]sha1sums-dewiki-20240201-pages-meta-history2.xml-p909509p958774.bz2.txt2024-02-04 08:15 101
[TXT]sha1sums-dewiki-20240201-pages-meta-history2.xml-p958775p1003452.7z.txt2024-02-04 19:17 101
[TXT]sha1sums-dewiki-20240201-pages-meta-history2.xml-p958775p1003452.bz2.txt2024-02-04 08:16 102
[TXT]sha1sums-dewiki-20240201-pages-meta-history2.xml-p1003453p1050118.7z.txt2024-02-04 19:17 102
[TXT]sha1sums-dewiki-20240201-pages-meta-history2.xml-p1003453p1050118.bz2.txt2024-02-04 08:16 103
[TXT]sha1sums-dewiki-20240201-pages-meta-history2.xml-p1050119p1106993.7z.txt2024-02-04 19:17 102
[TXT]sha1sums-dewiki-20240201-pages-meta-history2.xml-p1050119p1106993.bz2.txt2024-02-04 08:17 103
[TXT]sha1sums-dewiki-20240201-pages-meta-history2.xml-p1106994p1161020.7z.txt2024-02-04 19:17 102
[TXT]sha1sums-dewiki-20240201-pages-meta-history2.xml-p1106994p1161020.bz2.txt2024-02-04 08:18 103
[TXT]sha1sums-dewiki-20240201-pages-meta-history2.xml-p1161021p1217745.7z.txt2024-02-04 19:17 102
[TXT]sha1sums-dewiki-20240201-pages-meta-history2.xml-p1161021p1217745.bz2.txt2024-02-04 08:18 103
[TXT]sha1sums-dewiki-20240201-pages-meta-history2.xml-p1217746p1262093.7z.txt2024-02-04 19:17 102
[TXT]sha1sums-dewiki-20240201-pages-meta-history2.xml-p1217746p1262093.bz2.txt2024-02-04 08:19 103
[TXT]sha1sums-dewiki-20240201-pages-meta-history3.xml-p1262094p1318379.7z.txt2024-02-04 19:17 102
[TXT]sha1sums-dewiki-20240201-pages-meta-history3.xml-p1262094p1318379.bz2.txt2024-02-04 08:20 103
[TXT]sha1sums-dewiki-20240201-pages-meta-history3.xml-p1318380p1377557.7z.txt2024-02-04 19:17 102
[TXT]sha1sums-dewiki-20240201-pages-meta-history3.xml-p1318380p1377557.bz2.txt2024-02-04 08:20 103
[TXT]sha1sums-dewiki-20240201-pages-meta-history3.xml-p1377558p1433539.7z.txt2024-02-04 19:17 102
[TXT]sha1sums-dewiki-20240201-pages-meta-history3.xml-p1377558p1433539.bz2.txt2024-02-04 08:22 103
[TXT]sha1sums-dewiki-20240201-pages-meta-history3.xml-p1433540p1497984.7z.txt2024-02-04 19:18 102
[TXT]sha1sums-dewiki-20240201-pages-meta-history3.xml-p1433540p1497984.bz2.txt2024-02-04 08:23 103
[TXT]sha1sums-dewiki-20240201-pages-meta-history3.xml-p1497985p1567358.7z.txt2024-02-04 19:18 102
[TXT]sha1sums-dewiki-20240201-pages-meta-history3.xml-p1497985p1567358.bz2.txt2024-02-04 08:23 103
[TXT]sha1sums-dewiki-20240201-pages-meta-history3.xml-p1567359p1634925.7z.txt2024-02-04 19:18 102
[TXT]sha1sums-dewiki-20240201-pages-meta-history3.xml-p1567359p1634925.bz2.txt2024-02-04 08:24 103
[TXT]sha1sums-dewiki-20240201-pages-meta-history3.xml-p1634926p1694649.7z.txt2024-02-04 19:18 102
[TXT]sha1sums-dewiki-20240201-pages-meta-history3.xml-p1634926p1694649.bz2.txt2024-02-04 08:25 103
[TXT]sha1sums-dewiki-20240201-pages-meta-history3.xml-p1694650p1760294.7z.txt2024-02-04 19:18 102
[TXT]sha1sums-dewiki-20240201-pages-meta-history3.xml-p1694650p1760294.bz2.txt2024-02-04 08:25 103
[TXT]sha1sums-dewiki-20240201-pages-meta-history3.xml-p1760295p1833719.7z.txt2024-02-04 19:18 102
[TXT]sha1sums-dewiki-20240201-pages-meta-history3.xml-p1760295p1833719.bz2.txt2024-02-04 08:26 103
[TXT]sha1sums-dewiki-20240201-pages-meta-history3.xml-p1833720p1906958.7z.txt2024-02-04 19:18 102
[TXT]sha1sums-dewiki-20240201-pages-meta-history3.xml-p1833720p1906958.bz2.txt2024-02-04 08:27 103
[TXT]sha1sums-dewiki-20240201-pages-meta-history3.xml-p1906959p1987112.7z.txt2024-02-04 19:18 102
[TXT]sha1sums-dewiki-20240201-pages-meta-history3.xml-p1906959p1987112.bz2.txt2024-02-04 08:28 103
[TXT]sha1sums-dewiki-20240201-pages-meta-history3.xml-p1987113p2094172.7z.txt2024-02-04 19:18 102
[TXT]sha1sums-dewiki-20240201-pages-meta-history3.xml-p1987113p2094172.bz2.txt2024-02-04 08:28 103
[TXT]sha1sums-dewiki-20240201-pages-meta-history3.xml-p2094173p2176944.7z.txt2024-02-04 19:18 102
[TXT]sha1sums-dewiki-20240201-pages-meta-history3.xml-p2094173p2176944.bz2.txt2024-02-04 08:29 103
[TXT]sha1sums-dewiki-20240201-pages-meta-history3.xml-p2176945p2271875.7z.txt2024-02-04 19:18 102
[TXT]sha1sums-dewiki-20240201-pages-meta-history3.xml-p2176945p2271875.bz2.txt2024-02-04 08:30 103
[TXT]sha1sums-dewiki-20240201-pages-meta-history3.xml-p2271876p2373306.7z.txt2024-02-04 19:19 102
[TXT]sha1sums-dewiki-20240201-pages-meta-history3.xml-p2271876p2373306.bz2.txt2024-02-04 08:30 103
[TXT]sha1sums-dewiki-20240201-pages-meta-history3.xml-p2373307p2483956.7z.txt2024-02-04 19:19 102
[TXT]sha1sums-dewiki-20240201-pages-meta-history3.xml-p2373307p2483956.bz2.txt2024-02-04 08:31 103
[TXT]sha1sums-dewiki-20240201-pages-meta-history3.xml-p2483957p2593398.7z.txt2024-02-04 19:19 102
[TXT]sha1sums-dewiki-20240201-pages-meta-history3.xml-p2483957p2593398.bz2.txt2024-02-04 08:32 103
[TXT]sha1sums-dewiki-20240201-pages-meta-history3.xml-p2593399p2667694.7z.txt2024-02-04 19:19 102
[TXT]sha1sums-dewiki-20240201-pages-meta-history3.xml-p2593399p2667694.bz2.txt2024-02-04 08:33 103
[TXT]sha1sums-dewiki-20240201-pages-meta-history3.xml-p2667695p2747916.7z.txt2024-02-04 19:19 102
[TXT]sha1sums-dewiki-20240201-pages-meta-history3.xml-p2667695p2747916.bz2.txt2024-02-04 08:34 103
[TXT]sha1sums-dewiki-20240201-pages-meta-history3.xml-p2747917p2834096.7z.txt2024-02-04 19:19 102
[TXT]sha1sums-dewiki-20240201-pages-meta-history3.xml-p2747917p2834096.bz2.txt2024-02-04 08:35 103
[TXT]sha1sums-dewiki-20240201-pages-meta-history3.xml-p2834097p2929019.7z.txt2024-02-04 19:19 102
[TXT]sha1sums-dewiki-20240201-pages-meta-history3.xml-p2834097p2929019.bz2.txt2024-02-04 08:35 103
[TXT]sha1sums-dewiki-20240201-pages-meta-history3.xml-p2929020p3031797.7z.txt2024-02-04 19:19 102
[TXT]sha1sums-dewiki-20240201-pages-meta-history3.xml-p2929020p3031797.bz2.txt2024-02-04 08:36 103
[TXT]sha1sums-dewiki-20240201-pages-meta-history3.xml-p3031798p3093851.7z.txt2024-02-04 19:19 102
[TXT]sha1sums-dewiki-20240201-pages-meta-history3.xml-p3031798p3093851.bz2.txt2024-02-04 08:37 103
[TXT]sha1sums-dewiki-20240201-pages-meta-history3.xml-p3093852p3187020.7z.txt2024-02-04 19:19 102
[TXT]sha1sums-dewiki-20240201-pages-meta-history3.xml-p3093852p3187020.bz2.txt2024-02-04 08:38 103
[TXT]sha1sums-dewiki-20240201-pages-meta-history3.xml-p3187021p3307855.7z.txt2024-02-04 19:20 102
[TXT]sha1sums-dewiki-20240201-pages-meta-history3.xml-p3187021p3307855.bz2.txt2024-02-04 08:38 103
[TXT]sha1sums-dewiki-20240201-pages-meta-history3.xml-p3307856p3376257.7z.txt2024-02-04 19:20 102
[TXT]sha1sums-dewiki-20240201-pages-meta-history3.xml-p3307856p3376257.bz2.txt2024-02-04 08:39 103
[TXT]sha1sums-dewiki-20240201-pages-meta-history4.xml-p3376258p3471056.7z.txt2024-02-04 19:20 102
[TXT]sha1sums-dewiki-20240201-pages-meta-history4.xml-p3376258p3471056.bz2.txt2024-02-04 08:39 103
[TXT]sha1sums-dewiki-20240201-pages-meta-history4.xml-p3471057p3578404.7z.txt2024-02-04 19:20 102
[TXT]sha1sums-dewiki-20240201-pages-meta-history4.xml-p3471057p3578404.bz2.txt2024-02-04 08:40 103
[TXT]sha1sums-dewiki-20240201-pages-meta-history4.xml-p3578405p3679937.7z.txt2024-02-04 19:20 102
[TXT]sha1sums-dewiki-20240201-pages-meta-history4.xml-p3578405p3679937.bz2.txt2024-02-04 08:40 103
[TXT]sha1sums-dewiki-20240201-pages-meta-history4.xml-p3679938p3774014.7z.txt2024-02-04 19:20 102
[TXT]sha1sums-dewiki-20240201-pages-meta-history4.xml-p3679938p3774014.bz2.txt2024-02-04 08:41 103
[TXT]sha1sums-dewiki-20240201-pages-meta-history4.xml-p3774015p3869573.7z.txt2024-02-04 19:20 102
[TXT]sha1sums-dewiki-20240201-pages-meta-history4.xml-p3774015p3869573.bz2.txt2024-02-04 08:42 103
[TXT]sha1sums-dewiki-20240201-pages-meta-history4.xml-p3869574p3984516.7z.txt2024-02-04 19:20 102
[TXT]sha1sums-dewiki-20240201-pages-meta-history4.xml-p3869574p3984516.bz2.txt2024-02-04 08:43 103
[TXT]sha1sums-dewiki-20240201-pages-meta-history4.xml-p3984517p4097359.7z.txt2024-02-04 19:20 102
[TXT]sha1sums-dewiki-20240201-pages-meta-history4.xml-p3984517p4097359.bz2.txt2024-02-04 08:43 103
[TXT]sha1sums-dewiki-20240201-pages-meta-history4.xml-p4097360p4197019.7z.txt2024-02-04 19:21 102
[TXT]sha1sums-dewiki-20240201-pages-meta-history4.xml-p4097360p4197019.bz2.txt2024-02-04 08:44 103
[TXT]sha1sums-dewiki-20240201-pages-meta-history4.xml-p4197020p4297160.7z.txt2024-02-04 19:21 102
[TXT]sha1sums-dewiki-20240201-pages-meta-history4.xml-p4197020p4297160.bz2.txt2024-02-04 08:45 103
[TXT]sha1sums-dewiki-20240201-pages-meta-history4.xml-p4297161p4335009.7z.txt2024-02-04 19:21 102
[TXT]sha1sums-dewiki-20240201-pages-meta-history4.xml-p4297161p4335009.bz2.txt2024-02-04 08:46 103
[TXT]sha1sums-dewiki-20240201-pages-meta-history4.xml-p4335010p4398102.7z.txt2024-02-04 19:21 102
[TXT]sha1sums-dewiki-20240201-pages-meta-history4.xml-p4335010p4398102.bz2.txt2024-02-04 08:47 103
[TXT]sha1sums-dewiki-20240201-pages-meta-history4.xml-p4398103p4470219.7z.txt2024-02-04 19:21 102
[TXT]sha1sums-dewiki-20240201-pages-meta-history4.xml-p4398103p4470219.bz2.txt2024-02-04 08:48 103
[TXT]sha1sums-dewiki-20240201-pages-meta-history4.xml-p4470220p4561847.7z.txt2024-02-04 19:21 102
[TXT]sha1sums-dewiki-20240201-pages-meta-history4.xml-p4470220p4561847.bz2.txt2024-02-04 08:49 103
[TXT]sha1sums-dewiki-20240201-pages-meta-history4.xml-p4561848p4672027.7z.txt2024-02-04 19:21 102
[TXT]sha1sums-dewiki-20240201-pages-meta-history4.xml-p4561848p4672027.bz2.txt2024-02-04 08:49 103
[TXT]sha1sums-dewiki-20240201-pages-meta-history4.xml-p4672028p4791993.7z.txt2024-02-04 19:21 102
[TXT]sha1sums-dewiki-20240201-pages-meta-history4.xml-p4672028p4791993.bz2.txt2024-02-04 08:50 103
[TXT]sha1sums-dewiki-20240201-pages-meta-history4.xml-p4791994p4881896.7z.txt2024-02-04 19:21 102
[TXT]sha1sums-dewiki-20240201-pages-meta-history4.xml-p4791994p4881896.bz2.txt2024-02-04 08:52 103
[TXT]sha1sums-dewiki-20240201-pages-meta-history4.xml-p4881897p4989484.7z.txt2024-02-04 19:21 102
[TXT]sha1sums-dewiki-20240201-pages-meta-history4.xml-p4881897p4989484.bz2.txt2024-02-04 08:52 103
[TXT]sha1sums-dewiki-20240201-pages-meta-history4.xml-p4989485p5070508.7z.txt2024-02-04 19:22 102
[TXT]sha1sums-dewiki-20240201-pages-meta-history4.xml-p4989485p5070508.bz2.txt2024-02-04 08:53 103
[TXT]sha1sums-dewiki-20240201-pages-meta-history4.xml-p5070509p5190344.7z.txt2024-02-04 19:22 102
[TXT]sha1sums-dewiki-20240201-pages-meta-history4.xml-p5070509p5190344.bz2.txt2024-02-04 08:54 103
[TXT]sha1sums-dewiki-20240201-pages-meta-history4.xml-p5190345p5305108.7z.txt2024-02-04 19:22 102
[TXT]sha1sums-dewiki-20240201-pages-meta-history4.xml-p5190345p5305108.bz2.txt2024-02-04 08:55 103
[TXT]sha1sums-dewiki-20240201-pages-meta-history4.xml-p5305109p5394864.7z.txt2024-02-04 19:22 102
[TXT]sha1sums-dewiki-20240201-pages-meta-history4.xml-p5305109p5394864.bz2.txt2024-02-04 08:56 103
[TXT]sha1sums-dewiki-20240201-pages-meta-history4.xml-p5394865p5502284.7z.txt2024-02-04 19:22 102
[TXT]sha1sums-dewiki-20240201-pages-meta-history4.xml-p5394865p5502284.bz2.txt2024-02-04 08:57 103
[TXT]sha1sums-dewiki-20240201-pages-meta-history4.xml-p5502285p5609404.7z.txt2024-02-04 19:22 102
[TXT]sha1sums-dewiki-20240201-pages-meta-history4.xml-p5502285p5609404.bz2.txt2024-02-04 08:58 103
[TXT]sha1sums-dewiki-20240201-pages-meta-history4.xml-p5609405p5729958.7z.txt2024-02-04 19:22 102
[TXT]sha1sums-dewiki-20240201-pages-meta-history4.xml-p5609405p5729958.bz2.txt2024-02-04 08:59 103
[TXT]sha1sums-dewiki-20240201-pages-meta-history4.xml-p5729959p5856027.7z.txt2024-02-04 19:22 102
[TXT]sha1sums-dewiki-20240201-pages-meta-history4.xml-p5729959p5856027.bz2.txt2024-02-04 09:00 103
[TXT]sha1sums-dewiki-20240201-pages-meta-history4.xml-p5856028p5940824.7z.txt2024-02-04 19:22 102
[TXT]sha1sums-dewiki-20240201-pages-meta-history4.xml-p5856028p5940824.bz2.txt2024-02-04 09:01 103
[TXT]sha1sums-dewiki-20240201-pages-meta-history4.xml-p5940825p6065649.7z.txt2024-02-04 19:23 102
[TXT]sha1sums-dewiki-20240201-pages-meta-history4.xml-p5940825p6065649.bz2.txt2024-02-04 09:01 103
[TXT]sha1sums-dewiki-20240201-pages-meta-history4.xml-p6065650p6115464.7z.txt2024-02-04 19:23 102
[TXT]sha1sums-dewiki-20240201-pages-meta-history4.xml-p6065650p6115464.bz2.txt2024-02-04 09:02 103
[TXT]sha1sums-dewiki-20240201-pages-meta-history5.xml-p6115465p6232313.7z.txt2024-02-04 19:23 102
[TXT]sha1sums-dewiki-20240201-pages-meta-history5.xml-p6115465p6232313.bz2.txt2024-02-04 09:03 103
[TXT]sha1sums-dewiki-20240201-pages-meta-history5.xml-p6232314p6313943.7z.txt2024-02-04 19:23 102
[TXT]sha1sums-dewiki-20240201-pages-meta-history5.xml-p6232314p6313943.bz2.txt2024-02-04 09:04 103
[TXT]sha1sums-dewiki-20240201-pages-meta-history5.xml-p6313944p6406249.7z.txt2024-02-04 19:23 102
[TXT]sha1sums-dewiki-20240201-pages-meta-history5.xml-p6313944p6406249.bz2.txt2024-02-04 09:05 103
[TXT]sha1sums-dewiki-20240201-pages-meta-history5.xml-p6406250p6498560.7z.txt2024-02-04 19:23 102
[TXT]sha1sums-dewiki-20240201-pages-meta-history5.xml-p6406250p6498560.bz2.txt2024-02-04 09:06 103
[TXT]sha1sums-dewiki-20240201-pages-meta-history5.xml-p6498561p6529924.7z.txt2024-02-04 19:23 102
[TXT]sha1sums-dewiki-20240201-pages-meta-history5.xml-p6498561p6529924.bz2.txt2024-02-04 09:09 103
[TXT]sha1sums-dewiki-20240201-pages-meta-history5.xml-p6529925p6612033.7z.txt2024-02-04 19:23 102
[TXT]sha1sums-dewiki-20240201-pages-meta-history5.xml-p6529925p6612033.bz2.txt2024-02-04 09:11 103
[TXT]sha1sums-dewiki-20240201-pages-meta-history5.xml-p6612034p6678852.7z.txt2024-02-04 19:23 102
[TXT]sha1sums-dewiki-20240201-pages-meta-history5.xml-p6612034p6678852.bz2.txt2024-02-04 09:13 103
[TXT]sha1sums-dewiki-20240201-pages-meta-history5.xml-p6678853p6735278.7z.txt2024-02-04 19:24 102
[TXT]sha1sums-dewiki-20240201-pages-meta-history5.xml-p6678853p6735278.bz2.txt2024-02-04 09:14 103
[TXT]sha1sums-dewiki-20240201-pages-meta-history5.xml-p6735279p6837555.7z.txt2024-02-04 19:24 102
[TXT]sha1sums-dewiki-20240201-pages-meta-history5.xml-p6735279p6837555.bz2.txt2024-02-04 09:15 103
[TXT]sha1sums-dewiki-20240201-pages-meta-history5.xml-p6837556p6950682.7z.txt2024-02-04 19:24 102
[TXT]sha1sums-dewiki-20240201-pages-meta-history5.xml-p6837556p6950682.bz2.txt2024-02-04 09:16 103
[TXT]sha1sums-dewiki-20240201-pages-meta-history5.xml-p6950683p6991014.7z.txt2024-02-04 19:24 102
[TXT]sha1sums-dewiki-20240201-pages-meta-history5.xml-p6950683p6991014.bz2.txt2024-02-04 09:17 103
[TXT]sha1sums-dewiki-20240201-pages-meta-history5.xml-p6991015p7076403.7z.txt2024-02-04 19:24 102
[TXT]sha1sums-dewiki-20240201-pages-meta-history5.xml-p6991015p7076403.bz2.txt2024-02-04 09:21 103
[TXT]sha1sums-dewiki-20240201-pages-meta-history5.xml-p7076404p7165993.7z.txt2024-02-04 19:24 102
[TXT]sha1sums-dewiki-20240201-pages-meta-history5.xml-p7076404p7165993.bz2.txt2024-02-04 09:21 103
[TXT]sha1sums-dewiki-20240201-pages-meta-history5.xml-p7165994p7367433.7z.txt2024-02-04 19:24 102
[TXT]sha1sums-dewiki-20240201-pages-meta-history5.xml-p7165994p7367433.bz2.txt2024-02-04 09:22 103
[TXT]sha1sums-dewiki-20240201-pages-meta-history5.xml-p7367434p7491223.7z.txt2024-02-04 19:24 102
[TXT]sha1sums-dewiki-20240201-pages-meta-history5.xml-p7367434p7491223.bz2.txt2024-02-04 09:23 103
[TXT]sha1sums-dewiki-20240201-pages-meta-history5.xml-p7491224p7611161.7z.txt2024-02-04 19:25 102
[TXT]sha1sums-dewiki-20240201-pages-meta-history5.xml-p7491224p7611161.bz2.txt2024-02-04 09:24 103
[TXT]sha1sums-dewiki-20240201-pages-meta-history5.xml-p7611162p7717785.7z.txt2024-02-04 19:25 102
[TXT]sha1sums-dewiki-20240201-pages-meta-history5.xml-p7611162p7717785.bz2.txt2024-02-04 09:24 103
[TXT]sha1sums-dewiki-20240201-pages-meta-history5.xml-p7717786p7827229.7z.txt2024-02-04 19:25 102
[TXT]sha1sums-dewiki-20240201-pages-meta-history5.xml-p7717786p7827229.bz2.txt2024-02-04 09:25 103
[TXT]sha1sums-dewiki-20240201-pages-meta-history5.xml-p7827230p7959542.7z.txt2024-02-04 19:25 102
[TXT]sha1sums-dewiki-20240201-pages-meta-history5.xml-p7827230p7959542.bz2.txt2024-02-04 09:26 103
[TXT]sha1sums-dewiki-20240201-pages-meta-history5.xml-p7959543p8053311.7z.txt2024-02-04 19:25 102
[TXT]sha1sums-dewiki-20240201-pages-meta-history5.xml-p7959543p8053311.bz2.txt2024-02-04 09:27 103
[TXT]sha1sums-dewiki-20240201-pages-meta-history5.xml-p8053312p8136993.7z.txt2024-02-04 19:25 102
[TXT]sha1sums-dewiki-20240201-pages-meta-history5.xml-p8053312p8136993.bz2.txt2024-02-04 09:28 103
[TXT]sha1sums-dewiki-20240201-pages-meta-history5.xml-p8136994p8247726.7z.txt2024-02-04 19:25 102
[TXT]sha1sums-dewiki-20240201-pages-meta-history5.xml-p8136994p8247726.bz2.txt2024-02-04 09:28 103
[TXT]sha1sums-dewiki-20240201-pages-meta-history5.xml-p8247727p8373258.7z.txt2024-02-04 19:25 102
[TXT]sha1sums-dewiki-20240201-pages-meta-history5.xml-p8247727p8373258.bz2.txt2024-02-04 09:29 103
[TXT]sha1sums-dewiki-20240201-pages-meta-history5.xml-p8373259p8489384.7z.txt2024-02-04 19:25 102
[TXT]sha1sums-dewiki-20240201-pages-meta-history5.xml-p8373259p8489384.bz2.txt2024-02-04 09:30 103
[TXT]sha1sums-dewiki-20240201-pages-meta-history5.xml-p8489385p8609733.7z.txt2024-02-04 19:26 102
[TXT]sha1sums-dewiki-20240201-pages-meta-history5.xml-p8489385p8609733.bz2.txt2024-02-04 09:30 103
[TXT]sha1sums-dewiki-20240201-pages-meta-history5.xml-p8609734p8825546.7z.txt2024-02-04 19:26 102
[TXT]sha1sums-dewiki-20240201-pages-meta-history5.xml-p8609734p8825546.bz2.txt2024-02-04 09:31 103
[TXT]sha1sums-dewiki-20240201-pages-meta-history5.xml-p8825547p8937706.7z.txt2024-02-04 19:26 102
[TXT]sha1sums-dewiki-20240201-pages-meta-history5.xml-p8825547p8937706.bz2.txt2024-02-04 09:32 103
[TXT]sha1sums-dewiki-20240201-pages-meta-history5.xml-p8937707p9023998.7z.txt2024-02-04 19:26 102
[TXT]sha1sums-dewiki-20240201-pages-meta-history5.xml-p8937707p9023998.bz2.txt2024-02-04 09:32 103
[TXT]sha1sums-dewiki-20240201-pages-meta-history5.xml-p9023999p9082373.7z.txt2024-02-04 19:26 102
[TXT]sha1sums-dewiki-20240201-pages-meta-history5.xml-p9023999p9082373.bz2.txt2024-02-04 09:37 103
[TXT]sha1sums-dewiki-20240201-pages-meta-history5.xml-p9082374p9198414.7z.txt2024-02-04 19:26 102
[TXT]sha1sums-dewiki-20240201-pages-meta-history5.xml-p9082374p9198414.bz2.txt2024-02-04 09:38 103
[TXT]sha1sums-dewiki-20240201-pages-meta-history5.xml-p9198415p9261244.7z.txt2024-02-04 19:26 102
[TXT]sha1sums-dewiki-20240201-pages-meta-history5.xml-p9198415p9261244.bz2.txt2024-02-04 09:39 103
[TXT]sha1sums-dewiki-20240201-pages-meta-history6.xml-p9261245p9438967.7z.txt2024-02-04 19:26 102
[TXT]sha1sums-dewiki-20240201-pages-meta-history6.xml-p9261245p9438967.bz2.txt2024-02-04 09:39 103
[TXT]sha1sums-dewiki-20240201-pages-meta-history6.xml-p9438968p9569700.7z.txt2024-02-04 19:27 102
[TXT]sha1sums-dewiki-20240201-pages-meta-history6.xml-p9438968p9569700.bz2.txt2024-02-04 09:40 103
[TXT]sha1sums-dewiki-20240201-pages-meta-history6.xml-p9569701p9695944.7z.txt2024-02-04 19:27 102
[TXT]sha1sums-dewiki-20240201-pages-meta-history6.xml-p9569701p9695944.bz2.txt2024-02-04 09:41 103
[TXT]sha1sums-dewiki-20240201-pages-meta-history6.xml-p9695945p9791990.7z.txt2024-02-04 19:27 102
[TXT]sha1sums-dewiki-20240201-pages-meta-history6.xml-p9695945p9791990.bz2.txt2024-02-04 09:42 103
[TXT]sha1sums-dewiki-20240201-pages-meta-history6.xml-p9791991p9940836.7z.txt2024-02-04 19:27 102
[TXT]sha1sums-dewiki-20240201-pages-meta-history6.xml-p9791991p9940836.bz2.txt2024-02-04 09:43 103
[TXT]sha1sums-dewiki-20240201-pages-meta-history6.xml-p9940837p9952139.7z.txt2024-02-04 19:27 102
[TXT]sha1sums-dewiki-20240201-pages-meta-history6.xml-p9940837p9952139.bz2.txt2024-02-04 09:44 103
[TXT]sha1sums-dewiki-20240201-pages-meta-history6.xml-p9952140p10042862.7z.txt2024-02-04 19:27 103
[TXT]sha1sums-dewiki-20240201-pages-meta-history6.xml-p9952140p10042862.bz2.txt2024-02-04 09:45 104
[TXT]sha1sums-dewiki-20240201-pages-meta-history6.xml-p10042863p10103028.7z.txt2024-02-04 19:27 104
[TXT]sha1sums-dewiki-20240201-pages-meta-history6.xml-p10042863p10103028.bz2.txt2024-02-04 09:46 105
[TXT]sha1sums-dewiki-20240201-pages-meta-history6.xml-p10103029p10247541.7z.txt2024-02-04 19:28 104
[TXT]sha1sums-dewiki-20240201-pages-meta-history6.xml-p10103029p10247541.bz2.txt2024-02-04 09:46 105
[TXT]sha1sums-dewiki-20240201-pages-meta-history6.xml-p10247542p10256540.7z.txt2024-02-04 19:28 104
[TXT]sha1sums-dewiki-20240201-pages-meta-history6.xml-p10247542p10256540.bz2.txt2024-02-04 09:47 105
[TXT]sha1sums-dewiki-20240201-pages-meta-history6.xml-p10256541p10368950.7z.txt2024-02-04 19:28 104
[TXT]sha1sums-dewiki-20240201-pages-meta-history6.xml-p10256541p10368950.bz2.txt2024-02-04 09:48 105
[TXT]sha1sums-dewiki-20240201-pages-meta-history6.xml-p10368951p10521940.7z.txt2024-02-04 19:28 104
[TXT]sha1sums-dewiki-20240201-pages-meta-history6.xml-p10368951p10521940.bz2.txt2024-02-04 09:49 105
[TXT]sha1sums-dewiki-20240201-pages-meta-history6.xml-p10521941p10676300.7z.txt2024-02-04 19:28 104
[TXT]sha1sums-dewiki-20240201-pages-meta-history6.xml-p10521941p10676300.bz2.txt2024-02-04 09:50 105
[TXT]sha1sums-dewiki-20240201-pages-meta-history6.xml-p10676301p10803072.7z.txt2024-02-04 19:28 104
[TXT]sha1sums-dewiki-20240201-pages-meta-history6.xml-p10676301p10803072.bz2.txt2024-02-04 09:51 105
[TXT]sha1sums-dewiki-20240201-pages-meta-history6.xml-p10803073p10978490.7z.txt2024-02-04 19:28 104
[TXT]sha1sums-dewiki-20240201-pages-meta-history6.xml-p10803073p10978490.bz2.txt2024-02-04 09:51 105
[TXT]sha1sums-dewiki-20240201-pages-meta-history6.xml-p10978491p11131901.7z.txt2024-02-04 19:28 104
[TXT]sha1sums-dewiki-20240201-pages-meta-history6.xml-p10978491p11131901.bz2.txt2024-02-04 09:52 105
[TXT]sha1sums-dewiki-20240201-pages-meta-history6.xml-p11131902p11230078.7z.txt2024-02-04 19:29 104
[TXT]sha1sums-dewiki-20240201-pages-meta-history6.xml-p11131902p11230078.bz2.txt2024-02-04 09:54 105
[TXT]sha1sums-dewiki-20240201-pages-meta-history6.xml-p11230079p11275748.7z.txt2024-02-04 19:29 104
[TXT]sha1sums-dewiki-20240201-pages-meta-history6.xml-p11230079p11275748.bz2.txt2024-02-04 09:55 105
[TXT]sha1sums-dewiki-20240201-pages-meta-history6.xml-p11275749p11441233.7z.txt2024-02-04 19:29 104
[TXT]sha1sums-dewiki-20240201-pages-meta-history6.xml-p11275749p11441233.bz2.txt2024-02-04 09:56 105
[TXT]sha1sums-dewiki-20240201-pages-meta-history6.xml-p11441234p11556277.7z.txt2024-02-04 19:29 104
[TXT]sha1sums-dewiki-20240201-pages-meta-history6.xml-p11441234p11556277.bz2.txt2024-02-04 09:57 105
[TXT]sha1sums-dewiki-20240201-pages-meta-history6.xml-p11556278p11729040.7z.txt2024-02-04 19:29 104
[TXT]sha1sums-dewiki-20240201-pages-meta-history6.xml-p11556278p11729040.bz2.txt2024-02-04 09:58 105
[TXT]sha1sums-dewiki-20240201-pages-meta-history6.xml-p11729041p11874568.7z.txt2024-02-04 19:29 104
[TXT]sha1sums-dewiki-20240201-pages-meta-history6.xml-p11729041p11874568.bz2.txt2024-02-04 09:59 105
[TXT]sha1sums-dewiki-20240201-pages-meta-history6.xml-p11874569p12070003.7z.txt2024-02-04 19:29 104
[TXT]sha1sums-dewiki-20240201-pages-meta-history6.xml-p11874569p12070003.bz2.txt2024-02-04 10:00 105
[TXT]sha1sums-dewiki-20240201-pages-meta-history6.xml-p12070004p12258973.7z.txt2024-02-04 19:29 104
[TXT]sha1sums-dewiki-20240201-pages-meta-history6.xml-p12070004p12258973.bz2.txt2024-02-04 10:01 105
[TXT]sha1sums-dewiki-20240201-pages-meta-history6.xml-p12258974p12464488.7z.txt2024-02-04 19:30 104
[TXT]sha1sums-dewiki-20240201-pages-meta-history6.xml-p12258974p12464488.bz2.txt2024-02-04 10:02 105
[TXT]sha1sums-dewiki-20240201-pages-meta-history6.xml-p12464489p12675306.7z.txt2024-02-04 19:30 104
[TXT]sha1sums-dewiki-20240201-pages-meta-history6.xml-p12464489p12675306.bz2.txt2024-02-04 10:02 105
[TXT]sha1sums-dewiki-20240201-pages-meta-history6.xml-p12675307p12890514.7z.txt2024-02-04 19:30 104
[TXT]sha1sums-dewiki-20240201-pages-meta-history6.xml-p12675307p12890514.bz2.txt2024-02-04 10:03 105
[TXT]sha1sums-dewiki-20240201-pages-meta-history6.xml-p12890515p12978624.7z.txt2024-02-04 19:30 104
[TXT]sha1sums-dewiki-20240201-pages-meta-history6.xml-p12890515p12978624.bz2.txt2024-02-04 10:03 105
[TXT]sha1sums-dewiki-20240201-protected_titles.sql.gz.txt2024-02-01 16:06 82
[TXT]sha1sums-dewiki-20240201-redirect.sql.gz.txt2024-02-01 16:07 74
[TXT]sha1sums-dewiki-20240201-site_stats.sql.gz.txt2024-02-01 15:46 76
[TXT]sha1sums-dewiki-20240201-siteinfo-namespaces.json.gz.txt2024-02-03 01:09 86
[TXT]sha1sums-dewiki-20240201-siteinfo2-namespacesv2.json.gz.txt2024-02-03 01:10 89
[TXT]sha1sums-dewiki-20240201-sites.sql.gz.txt2024-02-01 16:25 71
[TXT]sha1sums-dewiki-20240201-stub-articles.xml.gz.txt2024-02-01 15:43 79
[TXT]sha1sums-dewiki-20240201-stub-articles1.xml.gz.txt2024-02-01 15:27 80
[TXT]sha1sums-dewiki-20240201-stub-articles2.xml.gz.txt2024-02-01 15:27 80
[TXT]sha1sums-dewiki-20240201-stub-articles3.xml.gz.txt2024-02-01 15:27 80
[TXT]sha1sums-dewiki-20240201-stub-articles4.xml.gz.txt2024-02-01 15:27 80
[TXT]sha1sums-dewiki-20240201-stub-articles5.xml.gz.txt2024-02-01 15:27 80
[TXT]sha1sums-dewiki-20240201-stub-articles6.xml.gz.txt2024-02-01 15:28 80
[TXT]sha1sums-dewiki-20240201-stub-meta-current.xml.gz.txt2024-02-01 15:43 83
[TXT]sha1sums-dewiki-20240201-stub-meta-current1.xml.gz.txt2024-02-01 15:27 84
[TXT]sha1sums-dewiki-20240201-stub-meta-current2.xml.gz.txt2024-02-01 15:27 84
[TXT]sha1sums-dewiki-20240201-stub-meta-current3.xml.gz.txt2024-02-01 15:27 84
[TXT]sha1sums-dewiki-20240201-stub-meta-current4.xml.gz.txt2024-02-01 15:27 84
[TXT]sha1sums-dewiki-20240201-stub-meta-current5.xml.gz.txt2024-02-01 15:27 84
[TXT]sha1sums-dewiki-20240201-stub-meta-current6.xml.gz.txt2024-02-01 15:27 84
[TXT]sha1sums-dewiki-20240201-stub-meta-history.xml.gz.txt2024-02-01 15:43 83
[TXT]sha1sums-dewiki-20240201-stub-meta-history1.xml.gz.txt2024-02-01 15:21 84
[TXT]sha1sums-dewiki-20240201-stub-meta-history2.xml.gz.txt2024-02-01 15:23 84
[TXT]sha1sums-dewiki-20240201-stub-meta-history3.xml.gz.txt2024-02-01 15:24 84
[TXT]sha1sums-dewiki-20240201-stub-meta-history4.xml.gz.txt2024-02-01 15:25 84
[TXT]sha1sums-dewiki-20240201-stub-meta-history5.xml.gz.txt2024-02-01 15:26 84
[TXT]sha1sums-dewiki-20240201-stub-meta-history6.xml.gz.txt2024-02-01 15:27 84
[TXT]sha1sums-dewiki-20240201-templatelinks.sql.gz.txt2024-02-01 15:58 79
[TXT]sha1sums-dewiki-20240201-user_former_groups.sql.gz.txt2024-02-01 16:04 84
[TXT]sha1sums-dewiki-20240201-user_groups.sql.gz.txt2024-02-01 16:03 77
[TXT]sha1sums-dewiki-20240201-wbc_entity_usage.sql.gz.txt2024-02-01 16:26 82
[HTM]status.html2024-02-04 19:30 107
[   ]tableinfo.json2024-02-01 09:05 1.9K

Apache/2.4.58 (Unix) Server at mirror.accum.se Port 443